Observation data for Endee on 06/19/2019      Previous  Date  Next       Current Mesonet Observations  Soil Data  Daily Summary Page  Observations in Plain Language
KEN1 190500Z 03009KT 21/07 A2995 RMK A01 T02070073  RH  042%=      5-min Rain = 0
KEN1 190501Z 03011KT 20/07 A2996 RMK A01 T02030074  RH  043%=      5-min Rain = 0
KEN1 190502Z 03011KT 20/07 A2996 RMK A01 T02000074  RH  044%=      5-min Rain = 0
KEN1 190503Z 03010KT 20/07 A2996 RMK A01 T01990074  RH  044%=      5-min Rain = 0
KEN1 190504Z 03009KT 20/07 A2996 RMK A01 T02000073  RH  044%=      5-min Rain = 0
KEN1 190505Z 03009KT 20/08 A2996 RMK A01 T02010075  RH  044%=      5-min Rain = 0
KEN1 190506Z 04010KT 20/07 A2996 RMK A01 T02010074  RH  044%=      5-min Rain = 0
KEN1 190507Z 04009KT 20/08 A2996 RMK A01 T02010075  RH  044%=      5-min Rain = 0
KEN1 190508Z 04009KT 20/08 A2996 RMK A01 T01990075  RH  045%=      5-min Rain = 0
KEN1 190509Z 04008KT 20/08 A2995 RMK A01 T01990075  RH  044%=      5-min Rain = 0
KEN1 190510Z 03007KT 20/08 A2995 RMK A01 T02000075  RH  044%=      5-min Rain = 0
KEN1 190511Z 03008KT 20/08 A2996 RMK A01 T02000077  RH  045%=      5-min Rain = 0
KEN1 190512Z 01009KT 20/07 A2996 RMK A01 T02010072  RH  043%=      5-min Rain = 0
KEN1 190513Z 02007KT 21/07 A2996 RMK A01 T02090071  RH  041%=      5-min Rain = 0
KEN1 190514Z 03007KT 21/07 A2996 RMK A01 T02140072  RH  040%=      5-min Rain = 0
KEN1 190515Z 03007KT 21/07 A2996 RMK A01 T02140074  RH  040%=      5-min Rain = 0
KEN1 190516Z 02007KT 21/07 A2996 RMK A01 T02120074  RH  041%=      5-min Rain = 0
KEN1 190517Z 02007KT 21/07 A2996 RMK A01 T02110074  RH  041%=      5-min Rain = 0
KEN1 190518Z 01007KT 21/07 A2995 RMK A01 T02090074  RH  042%=      5-min Rain = 0
KEN1 190519Z 01007KT 21/07 A2995 RMK A01 T02080074  RH  042%=      5-min Rain = 0
KEN1 190520Z 36007KT 21/07 A2996 RMK A01 T02080074  RH  042%=      5-min Rain = 0
KEN1 190521Z 00008KT 21/08 A2996 RMK A01 T02080075  RH  042%=      5-min Rain = 0
KEN1 190522Z 01009KT 21/08 A2996 RMK A01 T02070076  RH  043%=      5-min Rain = 0
KEN1 190523Z 00011KT 21/08 A2996 RMK A01 T02060076  RH  043%=      5-min Rain = 0
KEN1 190524Z 01011KT 21/08 A2996 RMK A01 T02070076  RH  043%=      5-min Rain = 0
KEN1 190525Z 02010KT 21/08 A2996 RMK A01 T02080078  RH  043%=      5-min Rain = 0
KEN1 190526Z 02011KT 21/08 A2996 RMK A01 T02070080  RH  044%=      5-min Rain = 0
KEN1 190527Z 03010KT 21/08 A2995 RMK A01 T02060080  RH  044%=      5-min Rain = 0
KEN1 190528Z 02009KT 21/08 A2995 RMK A01 T02060080  RH  044%=      5-min Rain = 0
KEN1 190529Z 03009KT 21/08 A2995 RMK A01 T02070081  RH  044%=      5-min Rain = 0
KEN1 190530Z 03010KT 21/09 A2996 RMK A01 T02070085  RH  045%=      5-min Rain = 0
KEN1 190531Z 03010KT 21/09 A2996 RMK A01 T02060090  RH  047%=      5-min Rain = 0
KEN1 190532Z 03011KT 21/09 A2996 RMK A01 T02060094  RH  049%=      5-min Rain = 0
KEN1 190533Z 04011KT 20/10 A2995 RMK A01 T02040098  RH  050%=      5-min Rain = 0
KEN1 190534Z 04012KT 20/10 A2995 RMK A01 T02030100  RH  052%=      5-min Rain = 0
KEN1 190535Z 03013KT 20/10 A2995 RMK A01 T02010102  RH  053%=      5-min Rain = 0
KEN1 190536Z 03012KT 20/10 A2995 RMK A01 T02000103  RH  054%=      5-min Rain = 0
KEN1 190537Z 04012KT 20/11 A2995 RMK A01 T01990105  RH  054%=      5-min Rain = 0
KEN1 190538Z 04013KT 20/11 A2995 RMK A01 T01980107  RH  056%=      5-min Rain = 0
KEN1 190539Z 04013KT 20/11 A2995 RMK A01 T01970109  RH  057%=      5-min Rain = 0
KEN1 190540Z 04013KT 20/11 A2995 RMK A01 T01970110  RH  057%=      5-min Rain = 0
KEN1 190541Z 04013KT 20/11 A2995 RMK A01 T01960113  RH  058%=      5-min Rain = 0
KEN1 190542Z 05012KT 20/11 A2995 RMK A01 T01960114  RH  059%=      5-min Rain = 0
KEN1 190543Z 05013KT 20/12 A2995 RMK A01 T01970116  RH  060%=      5-min Rain = 0
KEN1 190544Z 05013KT 20/12 A2995 RMK A01 T01960118  RH  061%=      5-min Rain = 0
KEN1 190545Z 05012KT 20/12 A2995 RMK A01 T01960119  RH  061%=      5-min Rain = 0
KEN1 190546Z 05013KT 20/12 A2995 RMK A01 T01960121  RH  062%=      5-min Rain = 0
KEN1 190547Z 05013KT 20/12 A2995 RMK A01 T01960122  RH  062%=      5-min Rain = 0
KEN1 190548Z 05013KT 20/12 A2995 RMK A01 T01960123  RH  063%=      5-min Rain = 0
KEN1 190549Z 04011KT 20/12 A2995 RMK A01 T01960123  RH  063%=      5-min Rain = 0
KEN1 190550Z 04010KT 20/12 A2995 RMK A01 T01970124  RH  063%=      5-min Rain = 0
KEN1 190551Z 05010KT 20/12 A2995 RMK A01 T01960124  RH  063%=      5-min Rain = 0
KEN1 190552Z 04010KT 19/13 A2995 RMK A01 T01940125  RH  064%=      5-min Rain = 0
KEN1 190553Z 04010KT 19/13 A2995 RMK A01 T01940126  RH  065%=      5-min Rain = 0
KEN1 190554Z 04010KT 19/13 A2995 RMK A01 T01930127  RH  065%=      5-min Rain = 0
KEN1 190555Z 05008KT 19/13 A2995 RMK A01 T01930126  RH  065%=      5-min Rain = 0
KEN1 190556Z 04009KT 19/13 A2995 RMK A01 T01940127  RH  065%=      5-min Rain = 0
KEN1 190557Z 04009KT 19/13 A2995 RMK A01 T01930127  RH  066%=      5-min Rain = 0
KEN1 190558Z 04008KT 19/13 A2995 RMK A01 T01930128  RH  066%=      5-min Rain = 0
KEN1 190559Z 03008KT 19/13 A2996 RMK A01 T01920128  RH  066%=      5-min Rain = 0
KEN1 190600Z 03007KT 19/13 A2996 RMK A01 T01920129  RH  067%=      5-min Rain = 0
KEN1 190601Z 02006KT 19/13 A2996 RMK A01 T01910129  RH  067%=      5-min Rain = 0
KEN1 190602Z 01006KT 19/13 A2996 RMK A01 T01900129  RH  068%=      5-min Rain = 0
KEN1 190603Z 02007KT 19/13 A2996 RMK A01 T01880129  RH  068%=      5-min Rain = 0
KEN1 190604Z 02008KT 19/13 A2996 RMK A01 T01860129  RH  069%=      5-min Rain = 0
KEN1 190605Z 02008KT 19/13 A2996 RMK A01 T01850129  RH  070%=      5-min Rain = 0
KEN1 190606Z 02009KT 19/13 A2996 RMK A01 T01850129  RH  070%=      5-min Rain = 0
KEN1 190607Z 02010KT 19/13 A2997 RMK A01 T01850130  RH  070%=      5-min Rain = 0
KEN1 190608Z 02010KT 18/13 A2997 RMK A01 T01840130  RH  071%=      5-min Rain = 0
KEN1 190609Z 01011KT 18/13 A2997 RMK A01 T01840130  RH  071%=      5-min Rain = 0
KEN1 190610Z 02012KT 18/13 A2997 RMK A01 T01840130  RH  071%=      5-min Rain = 0
KEN1 190611Z 01012KT 18/13 A2997 RMK A01 T01840131  RH  071%=      5-min Rain = 0
KEN1 190612Z 01012KT 18/13 A2997 RMK A01 T01840131  RH  071%=      5-min Rain = 0
KEN1 190613Z 01012KT 18/13 A2997 RMK A01 T01840131  RH  071%=      5-min Rain = 0
KEN1 190614Z 01012KT 19/13 A2997 RMK A01 T01850131  RH  071%=      5-min Rain = 0
KEN1 190615Z 01012KT 18/13 A2998 RMK A01 T01840132  RH  071%=      5-min Rain = 0
KEN1 190616Z 01011KT 18/13 A2998 RMK A01 T01830132  RH  072%=      5-min Rain = 0
KEN1 190617Z 01010KT 18/13 A2998 RMK A01 T01820132  RH  073%=      5-min Rain = 0
KEN1 190618Z 01012KT 18/13 A2998 RMK A01 T01810132  RH  073%=      5-min Rain = 0
KEN1 190619Z 00011KT 18/13 A2998 RMK A01 T01800132  RH  074%=      5-min Rain = 0
KEN1 190620Z 01012KT 18/13 A2998 RMK A01 T01790133  RH  074%=      5-min Rain = 0
KEN1 190621Z 01013KT 18/13 A2999 RMK A01 T01780133  RH  075%=      5-min Rain = 0
KEN1 190622Z 00013KT 18/13 A2999 RMK A01 T01780133  RH  075%=      5-min Rain = 0
KEN1 190623Z 00011KT 18/13 A2999 RMK A01 T01780133  RH  075%=      5-min Rain = 0
KEN1 190624Z 01012KT 18/13 A2998 RMK A01 T01770134  RH  075%=      5-min Rain = 0
KEN1 190625Z 01010KT 18/13 A2998 RMK A01 T01770134  RH  076%=      5-min Rain = 0
KEN1 190626Z 01012KT 18/13 A2998 RMK A01 T01770133  RH  076%=      5-min Rain = 0
KEN1 190627Z 01013KT 18/13 A2998 RMK A01 T01770133  RH  076%=      5-min Rain = 0
KEN1 190628Z 00014KT 18/13 A2998 RMK A01 T01770133  RH  075%=      5-min Rain = 0
KEN1 190629Z 00015KT 18/13 A2998 RMK A01 T01770133  RH  075%=      5-min Rain = 0
KEN1 190630Z 01013KT 18/13 A2999 RMK A01 T01770133  RH  075%=      5-min Rain = 0
KEN1 190631Z 01011KT 18/13 A2999 RMK A01 T01770132  RH  075%=      5-min Rain = 0
KEN1 190632Z 02011KT 18/13 A2998 RMK A01 T01770133  RH  075%=      5-min Rain = 0
KEN1 190633Z 02010KT 18/13 A2998 RMK A01 T01760132  RH  075%=      5-min Rain = 0
KEN1 190634Z 03010KT 18/13 A2998 RMK A01 T01760132  RH  075%=      5-min Rain = 0
KEN1 190635Z 03009KT 18/13 A2998 RMK A01 T01760132  RH  075%=      5-min Rain = 0
KEN1 190636Z 03009KT 18/13 A2998 RMK A01 T01760132  RH  075%=      5-min Rain = 0
KEN1 190637Z 03009KT 18/13 A2998 RMK A01 T01750132  RH  076%=      5-min Rain = 0
KEN1 190638Z 02009KT 18/13 A2998 RMK A01 T01750132  RH  076%=      5-min Rain = 0
KEN1 190639Z 02011KT 17/13 A2998 RMK A01 T01740132  RH  076%=      5-min Rain = 0
KEN1 190640Z 03011KT 17/13 A2998 RMK A01 T01730132  RH  076%=      5-min Rain = 0
KEN1 190641Z 03010KT 17/13 A2998 RMK A01 T01740132  RH  077%=      5-min Rain = 0
KEN1 190642Z 04009KT 17/13 A2998 RMK A01 T01730132  RH  077%=      5-min Rain = 0
KEN1 190643Z 04010KT 17/13 A2998 RMK A01 T01730132  RH  077%=      5-min Rain = 0
KEN1 190644Z 04009KT 17/13 A2998 RMK A01 T01730132  RH  077%=      5-min Rain = 0
KEN1 190645Z 04009KT 17/13 A2998 RMK A01 T01720132  RH  077%=      5-min Rain = 0
KEN1 190646Z 03009KT 17/13 A2998 RMK A01 T01720132  RH  078%=      5-min Rain = 0
KEN1 190647Z 03009KT 17/13 A2998 RMK A01 T01710132  RH  078%=      5-min Rain = 0
KEN1 190648Z 03010KT 17/13 A2998 RMK A01 T01710132  RH  078%=      5-min Rain = 0
KEN1 190649Z 03008KT 17/13 A2998 RMK A01 T01700132  RH  078%=      5-min Rain = 0
KEN1 190650Z 03009KT 17/13 A2998 RMK A01 T01700132  RH  078%=      5-min Rain = 0
KEN1 190651Z 03008KT 17/13 A2998 RMK A01 T01700132  RH  079%=      5-min Rain = 0
KEN1 190652Z 03009KT 17/13 A2998 RMK A01 T01690132  RH  079%=      5-min Rain = 0
KEN1 190653Z 03009KT 17/13 A2998 RMK A01 T01690133  RH  079%=      5-min Rain = 0
KEN1 190654Z 03010KT 17/13 A2998 RMK A01 T01680132  RH  079%=      5-min Rain = 0
KEN1 190655Z 03009KT 17/13 A2998 RMK A01 T01690133  RH  079%=      5-min Rain = 0
KEN1 190656Z 03011KT 17/13 A2998 RMK A01 T01690133  RH  079%=      5-min Rain = 0
KEN1 190657Z 03011KT 17/13 A2998 RMK A01 T01690133  RH  079%=      5-min Rain = 0
KEN1 190658Z 04011KT 17/13 A2998 RMK A01 T01700133  RH  079%=      5-min Rain = 0
KEN1 190659Z 04011KT 17/13 A2998 RMK A01 T01690133  RH  079%=      5-min Rain = 0
KEN1 190700Z 04010KT 17/13 A2998 RMK A01 T01690133  RH  079%=      5-min Rain = 0
KEN1 190701Z 04011KT 17/13 A2998 RMK A01 T01690133  RH  079%=      5-min Rain = 0
KEN1 190702Z 05010KT 17/13 A2998 RMK A01 T01690133  RH  079%=      5-min Rain = 0
KEN1 190703Z 04010KT 17/13 A2998 RMK A01 T01690133  RH  079%=      5-min Rain = 0
KEN1 190704Z 05010KT 17/13 A2998 RMK A01 T01700134  RH  079%=      5-min Rain = 0
KEN1 190705Z 04011KT 17/13 A2998 RMK A01 T01690133  RH  079%=      5-min Rain = 0
KEN1 190706Z 05010KT 17/13 A2998 RMK A01 T01690133  RH  079%=      5-min Rain = 0
KEN1 190707Z 04011KT 17/13 A2998 RMK A01 T01690133  RH  079%=      5-min Rain = 0
KEN1 190708Z 04010KT 17/13 A2998 RMK A01 T01690133  RH  079%=      5-min Rain = 0
KEN1 190709Z 05011KT 17/13 A2998 RMK A01 T01700133  RH  079%=      5-min Rain = 0
KEN1 190710Z 04010KT 17/13 A2997 RMK A01 T01700133  RH  079%=      5-min Rain = 0
KEN1 190711Z 05010KT 17/13 A2997 RMK A01 T01700133  RH  079%=      5-min Rain = 0
KEN1 190712Z 05010KT 17/13 A2997 RMK A01 T01690133  RH  079%=      5-min Rain = 0
KEN1 190713Z 05009KT 17/13 A2997 RMK A01 T01690133  RH  079%=      5-min Rain = 0
KEN1 190714Z 05008KT 17/13 A2997 RMK A01 T01690133  RH  079%=      5-min Rain = 0
KEN1 190715Z 05008KT 17/13 A2997 RMK A01 T01680133  RH  080%=      5-min Rain = 0
KEN1 190716Z 06009KT 17/13 A2997 RMK A01 T01670133  RH  080%=      5-min Rain = 0
KEN1 190717Z 06008KT 17/13 A2997 RMK A01 T01670133  RH  080%=      5-min Rain = 0
KEN1 190718Z 06008KT 17/13 A2997 RMK A01 T01660133  RH  081%=      5-min Rain = 0
KEN1 190719Z 06006KT 17/13 A2997 RMK A01 T01660133  RH  081%=      5-min Rain = 0
KEN1 190720Z 06007KT 17/13 A2997 RMK A01 T01650133  RH  081%=      5-min Rain = 0
KEN1 190721Z 06007KT 16/13 A2997 RMK A01 T01640133  RH  082%=      5-min Rain = 0
KEN1 190722Z 06007KT 16/13 A2997 RMK A01 T01630132  RH  082%=      5-min Rain = 0
KEN1 190723Z 06007KT 16/13 A2997 RMK A01 T01630132  RH  082%=      5-min Rain = 0
KEN1 190724Z 06007KT 16/13 A2997 RMK A01 T01620132  RH  082%=      5-min Rain = 0
KEN1 190725Z 06007KT 16/13 A2997 RMK A01 T01620132  RH  083%=      5-min Rain = 0
KEN1 190726Z 06006KT 16/13 A2997 RMK A01 T01610132  RH  083%=      5-min Rain = 0
KEN1 190727Z 06006KT 16/13 A2997 RMK A01 T01610132  RH  083%=      5-min Rain = 0
KEN1 190728Z 06006KT 16/13 A2997 RMK A01 T01600132  RH  083%=      5-min Rain = 0
KEN1 190729Z 06006KT 16/13 A2997 RMK A01 T01600132  RH  084%=      5-min Rain = 0
KEN1 190730Z 06007KT 16/13 A2997 RMK A01 T01590132  RH  084%=      5-min Rain = 0
KEN1 190731Z 06006KT 16/13 A2997 RMK A01 T01580132  RH  085%=      5-min Rain = 0
KEN1 190732Z 06006KT 16/13 A2997 RMK A01 T01570132  RH  085%=      5-min Rain = 0
KEN1 190733Z 05006KT 16/13 A2997 RMK A01 T01570132  RH  085%=      5-min Rain = 0
KEN1 190734Z 04006KT 16/13 A2997 RMK A01 T01570132  RH  085%=      5-min Rain = 0
KEN1 190735Z 04006KT 16/13 A2998 RMK A01 T01570132  RH  085%=      5-min Rain = 0
KEN1 190736Z 03006KT 16/13 A2998 RMK A01 T01560132  RH  086%=      5-min Rain = 0
KEN1 190737Z 03006KT 16/13 A2998 RMK A01 T01560132  RH  086%=      5-min Rain = 0
KEN1 190738Z 03006KT 16/13 A2998 RMK A01 T01550132  RH  086%=      5-min Rain = 0
KEN1 190739Z 03005KT 16/13 A2998 RMK A01 T01550132  RH  086%=      5-min Rain = 0
KEN1 190740Z 03005KT 16/13 A2998 RMK A01 T01550132  RH  086%=      5-min Rain = 0
KEN1 190741Z 03005KT 15/13 A2998 RMK A01 T01540132  RH  087%=      5-min Rain = 0
KEN1 190742Z 03005KT 15/13 A2998 RMK A01 T01540132  RH  087%=      5-min Rain = 0
KEN1 190743Z 03005KT 15/13 A2998 RMK A01 T01530131  RH  087%=      5-min Rain = 0
KEN1 190744Z 03005KT 15/13 A2998 RMK A01 T01530131  RH  087%=      5-min Rain = 0
KEN1 190745Z 03005KT 15/13 A2998 RMK A01 T01520131  RH  087%=      5-min Rain = 0
KEN1 190746Z 04005KT 15/13 A2998 RMK A01 T01520131  RH  087%=      5-min Rain = 0
KEN1 190747Z 04005KT 15/13 A2998 RMK A01 T01520131  RH  088%=      5-min Rain = 0
KEN1 190748Z 04005KT 15/13 A2998 RMK A01 T01510131  RH  088%=      5-min Rain = 0
KEN1 190749Z 04005KT 15/13 A2998 RMK A01 T01510131  RH  088%=      5-min Rain = 0
KEN1 190750Z 04005KT 15/13 A2998 RMK A01 T01500131  RH  088%=      5-min Rain = 0
KEN1 190751Z 03005KT 15/13 A2998 RMK A01 T01500131  RH  088%=      5-min Rain = 0
KEN1 190752Z 03005KT 15/13 A2998 RMK A01 T01490131  RH  089%=      5-min Rain = 0
KEN1 190753Z 03005KT 15/13 A2998 RMK A01 T01490131  RH  089%=      5-min Rain = 0
KEN1 190754Z 03005KT 15/13 A2998 RMK A01 T01490131  RH  089%=      5-min Rain = 0
KEN1 190755Z 03005KT 15/13 A2998 RMK A01 T01490131  RH  089%=      5-min Rain = 0
KEN1 190756Z 02005KT 15/13 A2998 RMK A01 T01480131  RH  089%=      5-min Rain = 0
KEN1 190757Z 02006KT 15/13 A2998 RMK A01 T01480131  RH  090%=      5-min Rain = 0
KEN1 190758Z 02006KT 15/13 A2998 RMK A01 T01480131  RH  090%=      5-min Rain = 0
KEN1 190759Z 02006KT 15/13 A2998 RMK A01 T01470131  RH  090%=      5-min Rain = 0
KEN1 190800Z 03006KT 15/13 A2998 RMK A01 T01470131  RH  090%=      5-min Rain = 0
KEN1 190801Z 03006KT 15/13 A2997 RMK A01 T01470131  RH  090%=      5-min Rain = 0
KEN1 190802Z 03006KT 15/13 A2997 RMK A01 T01460131  RH  090%=      5-min Rain = 0
KEN1 190803Z 03005KT 15/13 A2997 RMK A01 T01460131  RH  091%=      5-min Rain = 0
KEN1 190804Z 04005KT 15/13 A2997 RMK A01 T01460131  RH  091%=      5-min Rain = 0
KEN1 190805Z 04005KT 15/13 A2997 RMK A01 T01470132  RH  091%=      5-min Rain = 0
KEN1 190806Z 04004KT 15/13 A2997 RMK A01 T01470132  RH  091%=      5-min Rain = 0
KEN1 190807Z 05004KT 15/13 A2997 RMK A01 T01470132  RH  091%=      5-min Rain = 0
KEN1 190808Z 05003KT 15/13 A2997 RMK A01 T01460132  RH  091%=      5-min Rain = 0
KEN1 190809Z 05003KT 15/13 A2997 RMK A01 T01460131  RH  091%=      5-min Rain = 0
KEN1 190810Z 05003KT 15/13 A2997 RMK A01 T01460131  RH  091%=      5-min Rain = 0
KEN1 190811Z 05003KT 15/13 A2997 RMK A01 T01460131  RH  091%=      5-min Rain = 0
KEN1 190812Z 06002KT 15/13 A2997 RMK A01 T01460131  RH  091%=      5-min Rain = 0
KEN1 190813Z 06002KT 15/13 A2997 RMK A01 T01450131  RH  091%=      5-min Rain = 0
KEN1 190814Z 07002KT 15/13 A2997 RMK A01 T01450131  RH  091%=      5-min Rain = 0
KEN1 190815Z 08002KT 15/13 A2997 RMK A01 T01450132  RH  092%=      5-min Rain = 0
KEN1 190816Z 08002KT 15/13 A2997 RMK A01 T01450132  RH  092%=      5-min Rain = 0
KEN1 190817Z 07002KT 15/13 A2997 RMK A01 T01450132  RH  092%=      5-min Rain = 0
KEN1 190818Z 07002KT 15/13 A2997 RMK A01 T01450132  RH  092%=      5-min Rain = 0
KEN1 190819Z 07002KT 15/13 A2997 RMK A01 T01450132  RH  092%=      5-min Rain = 0
KEN1 190820Z 05002KT 15/13 A2997 RMK A01 T01450132  RH  092%=      5-min Rain = 0
KEN1 190821Z 03002KT 15/13 A2997 RMK A01 T01450132  RH  092%=      5-min Rain = 0
KEN1 190822Z 02002KT 15/13 A2997 RMK A01 T01450132  RH  092%=      5-min Rain = 0
KEN1 190823Z 01002KT 15/13 A2997 RMK A01 T01450132  RH  092%=      5-min Rain = 0
KEN1 190824Z 01002KT 15/13 A2997 RMK A01 T01450132  RH  092%=      5-min Rain = 0
KEN1 190825Z 01002KT 15/13 A2997 RMK A01 T01450132  RH  092%=      5-min Rain = 0
KEN1 190826Z 02001KT 15/13 A2997 RMK A01 T01450132  RH  092%=      5-min Rain = 0
KEN1 190827Z 01001KT 15/13 A2997 RMK A01 T01450132  RH  092%=      5-min Rain = 0
KEN1 190828Z 35001KT 14/13 A2997 RMK A01 T01440132  RH  092%=      5-min Rain = 0
KEN1 190829Z 34001KT 14/13 A2997 RMK A01 T01440132  RH  092%=      5-min Rain = 0
KEN1 190830Z 33001KT 14/13 A2997 RMK A01 T01430132  RH  093%=      5-min Rain = 0
KEN1 190831Z 33001KT 14/13 A2997 RMK A01 T01430131  RH  093%=      5-min Rain = 0
KEN1 190832Z 33001KT 14/13 A2997 RMK A01 T01420131  RH  093%=      5-min Rain = 0
KEN1 190833Z 33000KT 14/13 A2996 RMK A01 T01420130  RH  093%=      5-min Rain = 0
KEN1 190834Z 25000KT 14/13 A2996 RMK A01 T01410129  RH  093%=      5-min Rain = 0
KEN1 190835Z 24000KT 14/13 A2996 RMK A01 T01410130  RH  093%=      5-min Rain = 0
KEN1 190836Z 23001KT 14/13 A2996 RMK A01 T01400130  RH  094%=      5-min Rain = 0
KEN1 190837Z 23001KT 14/13 A2996 RMK A01 T01410131  RH  094%=      5-min Rain = 0
KEN1 190838Z 23001KT 14/13 A2996 RMK A01 T01410131  RH  094%=      5-min Rain = 0
KEN1 190839Z 23001KT 14/13 A2996 RMK A01 T01410130  RH  093%=      5-min Rain = 0
KEN1 190840Z 24001KT 14/13 A2996 RMK A01 T01400129  RH  093%=      5-min Rain = 0
KEN1 190841Z 24001KT 14/13 A2996 RMK A01 T01400129  RH  093%=      5-min Rain = 0
KEN1 190842Z 25001KT 14/13 A2996 RMK A01 T01400129  RH  093%=      5-min Rain = 0
KEN1 190843Z 25001KT 14/13 A2996 RMK A01 T01400130  RH  094%=      5-min Rain = 0
KEN1 190844Z 25001KT 14/13 A2996 RMK A01 T01420132  RH  094%=      5-min Rain = 0
KEN1 190845Z 26001KT 14/13 A2996 RMK A01 T01440134  RH  094%=      5-min Rain = 0
KEN1 190846Z 28001KT 15/13 A2996 RMK A01 T01450134  RH  093%=      5-min Rain = 0
KEN1 190847Z 27001KT 15/13 A2996 RMK A01 T01450132  RH  092%=      5-min Rain = 0
KEN1 190848Z 24001KT 15/13 A2996 RMK A01 T01450132  RH  092%=      5-min Rain = 0
KEN1 190849Z 22001KT 15/13 A2996 RMK A01 T01450131  RH  091%=      5-min Rain = 0
KEN1 190850Z 22001KT 15/13 A2996 RMK A01 T01450131  RH  091%=      5-min Rain = 0
KEN1 190851Z 25002KT 15/13 A2997 RMK A01 T01450130  RH  091%=      5-min Rain = 0
KEN1 190852Z 25002KT 14/13 A2997 RMK A01 T01440130  RH  091%=      5-min Rain = 0
KEN1 190853Z 26001KT 14/13 A2997 RMK A01 T01440130  RH  091%=      5-min Rain = 0
KEN1 190854Z 26002KT 14/13 A2997 RMK A01 T01440131  RH  091%=      5-min Rain = 0
KEN1 190855Z 26002KT 14/13 A2997 RMK A01 T01440131  RH  092%=      5-min Rain = 0
KEN1 190856Z 25001KT 15/13 A2997 RMK A01 T01450131  RH  092%=      5-min Rain = 0
KEN1 190857Z 30001KT 15/13 A2997 RMK A01 T01450131  RH  092%=      5-min Rain = 0
KEN1 190858Z 30002KT 15/13 A2997 RMK A01 T01450132  RH  092%=      5-min Rain = 0
KEN1 190859Z 31002KT 15/13 A2997 RMK A01 T01450132  RH  091%=      5-min Rain = 0
KEN1 190900Z 29001KT 15/13 A2997 RMK A01 T01450131  RH  091%=      5-min Rain = 0
KEN1 190901Z 28002KT 14/13 A2997 RMK A01 T01440130  RH  091%=      5-min Rain = 0
KEN1 190902Z 28001KT 14/13 A2997 RMK A01 T01430130  RH  092%=      5-min Rain = 0
KEN1 190903Z 26001KT 14/13 A2997 RMK A01 T01430130  RH  092%=      5-min Rain = 0
KEN1 190904Z 27001KT 14/13 A2997 RMK A01 T01430131  RH  092%=      5-min Rain = 0
KEN1 190905Z 27001KT 14/13 A2997 RMK A01 T01430131  RH  092%=      5-min Rain = 0
KEN1 190906Z 29001KT 14/13 A2997 RMK A01 T01430131  RH  093%=      5-min Rain = 0
KEN1 190907Z 28001KT 15/13 A2997 RMK A01 T01450132  RH  092%=      5-min Rain = 0
KEN1 190908Z 31001KT 15/13 A2997 RMK A01 T01450131  RH  092%=      5-min Rain = 0
KEN1 190909Z 31001KT 15/13 A2997 RMK A01 T01450132  RH  091%=      5-min Rain = 0
KEN1 190910Z 32001KT 15/13 A2997 RMK A01 T01460132  RH  091%=      5-min Rain = 0
KEN1 190911Z 33001KT 15/13 A2997 RMK A01 T01460131  RH  091%=      5-min Rain = 0
KEN1 190912Z 35002KT 15/13 A2997 RMK A01 T01460131  RH  091%=      5-min Rain = 0
KEN1 190913Z 33002KT 15/13 A2997 RMK A01 T01460131  RH  091%=      5-min Rain = 0
KEN1 190914Z 32002KT 15/13 A2997 RMK A01 T01460131  RH  091%=      5-min Rain = 0
KEN1 190915Z 32003KT 15/13 A2997 RMK A01 T01450130  RH  091%=      5-min Rain = 0
KEN1 190916Z 32003KT 15/13 A2997 RMK A01 T01450130  RH  091%=      5-min Rain = 0
KEN1 190917Z 31004KT 14/13 A2997 RMK A01 T01430129  RH  091%=      5-min Rain = 0
KEN1 190918Z 31004KT 14/13 A2997 RMK A01 T01430129  RH  091%=      5-min Rain = 0
KEN1 190919Z 31003KT 14/13 A2997 RMK A01 T01420129  RH  092%=      5-min Rain = 0
KEN1 190920Z 30003KT 14/13 A2997 RMK A01 T01420130  RH  092%=      5-min Rain = 0
KEN1 190921Z 28002KT 14/13 A2997 RMK A01 T01420130  RH  092%=      5-min Rain = 0
KEN1 190922Z 26002KT 14/13 A2997 RMK A01 T01420130  RH  092%=      5-min Rain = 0
KEN1 190923Z 26003KT 14/13 A2997 RMK A01 T01420130  RH  093%=      5-min Rain = 0
KEN1 190924Z 26003KT 14/13 A2997 RMK A01 T01410129  RH  093%=      5-min Rain = 0
KEN1 190925Z 26003KT 14/13 A2997 RMK A01 T01400128  RH  092%=      5-min Rain = 0
KEN1 190926Z 27003KT 14/13 A2997 RMK A01 T01400129  RH  093%=      5-min Rain = 0
KEN1 190927Z 26003KT 14/13 A2997 RMK A01 T01410130  RH  093%=      5-min Rain = 0
KEN1 190928Z 24002KT 14/13 A2997 RMK A01 T01420132  RH  093%=      5-min Rain = 0
KEN1 190929Z 27002KT 14/13 A2997 RMK A01 T01430131  RH  092%=      5-min Rain = 0
KEN1 190930Z 29002KT 14/13 A2997 RMK A01 T01430130  RH  092%=      5-min Rain = 0
KEN1 190931Z 30001KT 14/13 A2997 RMK A01 T01430130  RH  092%=      5-min Rain = 0
KEN1 190932Z 04002KT 14/13 A2997 RMK A01 T01430131  RH  092%=      5-min Rain = 0
KEN1 190933Z 06001KT 15/13 A2996 RMK A01 T01450131  RH  091%=      5-min Rain = 0
KEN1 190934Z 05000KT 15/13 A2996 RMK A01 T01470130  RH  090%=      5-min Rain = 0
KEN1 190935Z 03000KT 15/13 A2996 RMK A01 T01470130  RH  090%=      5-min Rain = 0
KEN1 190936Z 27001KT 15/13 A2996 RMK A01 T01460130  RH  090%=      5-min Rain = 0
KEN1 190937Z 24001KT 15/13 A2996 RMK A01 T01470130  RH  090%=      5-min Rain = 0
KEN1 190938Z 25001KT 15/13 A2996 RMK A01 T01470130  RH  090%=      5-min Rain = 0
KEN1 190939Z 30001KT 15/13 A2996 RMK A01 T01460129  RH  090%=      5-min Rain = 0
KEN1 190940Z 31000KT 15/13 A2996 RMK A01 T01460129  RH  090%=      5-min Rain = 0
KEN1 190941Z 31000KT 15/13 A2996 RMK A01 T01450129  RH  090%=      5-min Rain = 0
KEN1 190942Z 30001KT 15/13 A2996 RMK A01 T01450128  RH  090%=      5-min Rain = 0
KEN1 190943Z 30002KT 14/13 A2996 RMK A01 T01440128  RH  090%=      5-min Rain = 0
KEN1 190944Z 30001KT 14/13 A2996 RMK A01 T01440128  RH  090%=      5-min Rain = 0
KEN1 190945Z 30001KT 14/13 A2996 RMK A01 T01440128  RH  090%=      5-min Rain = 0
KEN1 190946Z 30001KT 14/13 A2996 RMK A01 T01430126  RH  090%=      5-min Rain = 0
KEN1 190947Z 30001KT 14/13 A2996 RMK A01 T01420126  RH  090%=      5-min Rain = 0
KEN1 190948Z 30002KT 14/13 A2996 RMK A01 T01410126  RH  091%=      5-min Rain = 0
KEN1 190949Z 29003KT 14/13 A2996 RMK A01 T01400126  RH  091%=      5-min Rain = 0
KEN1 190950Z 29003KT 14/13 A2996 RMK A01 T01390126  RH  091%=      5-min Rain = 0
KEN1 190951Z 29003KT 14/13 A2996 RMK A01 T01390126  RH  092%=      5-min Rain = 0
KEN1 190952Z 29002KT 14/13 A2996 RMK A01 T01380125  RH  092%=      5-min Rain = 0
KEN1 190953Z 29002KT 14/13 A2996 RMK A01 T01370125  RH  092%=      5-min Rain = 0
KEN1 190954Z 30002KT 14/13 A2996 RMK A01 T01370126  RH  093%=      5-min Rain = 0
KEN1 190955Z 31001KT 14/13 A2996 RMK A01 T01370127  RH  093%=      5-min Rain = 0
KEN1 190956Z 33002KT 14/13 A2996 RMK A01 T01370126  RH  093%=      5-min Rain = 0
KEN1 190957Z 34002KT 14/13 A2996 RMK A01 T01370126  RH  093%=      5-min Rain = 0
KEN1 190958Z 33003KT 14/12 A2996 RMK A01 T01360124  RH  093%=      5-min Rain = 0
KEN1 190959Z 32003KT 13/12 A2996 RMK A01 T01340121  RH  092%=      5-min Rain = 0
KEN1 191000Z 32004KT 13/12 A2996 RMK A01 T01330123  RH  093%=      5-min Rain = 0
KEN1 191001Z 32005KT 13/12 A2996 RMK A01 T01330124  RH  094%=      5-min Rain = 0
KEN1 191002Z 32005KT 13/12 A2996 RMK A01 T01330124  RH  094%=      5-min Rain = 0
KEN1 191003Z 32005KT 13/13 A2996 RMK A01 T01330125  RH  095%=      5-min Rain = 0
KEN1 191004Z 32006KT 13/13 A2996 RMK A01 T01340125  RH  095%=      5-min Rain = 0
KEN1 191005Z 32005KT 13/13 A2996 RMK A01 T01340125  RH  095%=      5-min Rain = 0
KEN1 191006Z 32005KT 13/13 A2996 RMK A01 T01340125  RH  095%=      5-min Rain = 0
KEN1 191007Z 32005KT 13/13 A2996 RMK A01 T01340126  RH  095%=      5-min Rain = 0
KEN1 191008Z 32005KT 13/13 A2996 RMK A01 T01340125  RH  094%=      5-min Rain = 0
KEN1 191009Z 32005KT 13/13 A2996 RMK A01 T01340126  RH  094%=      5-min Rain = 0
KEN1 191010Z 32005KT 13/13 A2997 RMK A01 T01340126  RH  095%=      5-min Rain = 0
KEN1 191011Z 32005KT 13/13 A2997 RMK A01 T01340125  RH  095%=      5-min Rain = 0
KEN1 191012Z 32006KT 13/13 A2997 RMK A01 T01340126  RH  095%=      5-min Rain = 0
KEN1 191013Z 33006KT 13/13 A2997 RMK A01 T01340126  RH  095%=      5-min Rain = 0
KEN1 191014Z 33006KT 14/13 A2997 RMK A01 T01350126  RH  094%=      5-min Rain = 0
KEN1 191015Z 33006KT 14/13 A2997 RMK A01 T01350126  RH  094%=      5-min Rain = 0
KEN1 191016Z 34006KT 14/13 A2997 RMK A01 T01350126  RH  094%=      5-min Rain = 0
KEN1 191017Z 34005KT 14/13 A2997 RMK A01 T01350127  RH  094%=      5-min Rain = 0
KEN1 191018Z 33005KT 14/13 A2996 RMK A01 T01370128  RH  094%=      5-min Rain = 0
KEN1 191019Z 34005KT 14/13 A2996 RMK A01 T01370129  RH  094%=      5-min Rain = 0
KEN1 191020Z 34004KT 14/13 A2996 RMK A01 T01380129  RH  094%=      5-min Rain = 0
KEN1 191021Z 34004KT 14/13 A2996 RMK A01 T01380128  RH  094%=      5-min Rain = 0
KEN1 191022Z 34004KT 14/13 A2996 RMK A01 T01390128  RH  093%=      5-min Rain = 0
KEN1 191023Z 35003KT 14/13 A2996 RMK A01 T01380127  RH  093%=      5-min Rain = 0
KEN1 191024Z 35004KT 14/13 A2996 RMK A01 T01380127  RH  093%=      5-min Rain = 0
KEN1 191025Z 34004KT 14/13 A2996 RMK A01 T01380126  RH  093%=      5-min Rain = 0
KEN1 191026Z 34005KT 14/13 A2996 RMK A01 T01380126  RH  093%=      5-min Rain = 0
KEN1 191027Z 34005KT 14/13 A2996 RMK A01 T01370126  RH  093%=      5-min Rain = 0
KEN1 191028Z 34005KT 14/13 A2996 RMK A01 T01370126  RH  093%=      5-min Rain = 0
KEN1 191029Z 34005KT 14/13 A2996 RMK A01 T01370126  RH  093%=      5-min Rain = 0
KEN1 191030Z 34006KT 14/13 A2996 RMK A01 T01360125  RH  093%=      5-min Rain = 0
KEN1 191031Z 34006KT 14/13 A2996 RMK A01 T01360125  RH  093%=      5-min Rain = 0
KEN1 191032Z 34006KT 14/13 A2996 RMK A01 T01360125  RH  093%=      5-min Rain = 0
KEN1 191033Z 34006KT 14/13 A2996 RMK A01 T01350125  RH  093%=      5-min Rain = 0
KEN1 191034Z 34006KT 14/13 A2996 RMK A01 T01350125  RH  094%=      5-min Rain = 0
KEN1 191035Z 34007KT 14/13 A2996 RMK A01 T01350125  RH  094%=      5-min Rain = 0
KEN1 191036Z 34006KT 14/13 A2996 RMK A01 T01350126  RH  094%=      5-min Rain = 0
KEN1 191037Z 34006KT 14/13 A2996 RMK A01 T01350126  RH  094%=      5-min Rain = 0
KEN1 191038Z 34006KT 14/13 A2996 RMK A01 T01350126  RH  094%=      5-min Rain = 0
KEN1 191039Z 34007KT 14/13 A2997 RMK A01 T01350126  RH  094%=      5-min Rain = 0
KEN1 191040Z 34006KT 14/13 A2997 RMK A01 T01350126  RH  094%=      5-min Rain = 0
KEN1 191041Z 34007KT 14/13 A2997 RMK A01 T01360126  RH  094%=      5-min Rain = 0
KEN1 191042Z 34007KT 14/13 A2997 RMK A01 T01360127  RH  094%=      5-min Rain = 0
KEN1 191043Z 34007KT 14/13 A2997 RMK A01 T01360127  RH  094%=      5-min Rain = 0
KEN1 191044Z 34007KT 14/13 A2997 RMK A01 T01370127  RH  094%=      5-min Rain = 0
KEN1 191045Z 34006KT 14/13 A2997 RMK A01 T01360127  RH  094%=      5-min Rain = 0
KEN1 191046Z 34006KT 14/13 A2997 RMK A01 T01360127  RH  094%=      5-min Rain = 0
KEN1 191047Z 34006KT 14/13 A2997 RMK A01 T01360126  RH  094%=      5-min Rain = 0
KEN1 191048Z 34006KT 14/13 A2997 RMK A01 T01360126  RH  094%=      5-min Rain = 0
KEN1 191049Z 34006KT 14/13 A2997 RMK A01 T01360126  RH  094%=      5-min Rain = 0
KEN1 191050Z 34005KT 14/13 A2997 RMK A01 T01350126  RH  094%=      5-min Rain = 0
KEN1 191051Z 34005KT 14/13 A2997 RMK A01 T01350126  RH  094%=      5-min Rain = 0
KEN1 191052Z 33005KT 14/13 A2996 RMK A01 T01350126  RH  094%=      5-min Rain = 0
KEN1 191053Z 34005KT 14/13 A2996 RMK A01 T01350126  RH  094%=      5-min Rain = 0
KEN1 191054Z 34005KT 14/13 A2996 RMK A01 T01350126  RH  094%=      5-min Rain = 0
KEN1 191055Z 34005KT 14/13 A2996 RMK A01 T01350126  RH  094%=      5-min Rain = 0
KEN1 191056Z 34005KT 14/13 A2996 RMK A01 T01350125  RH  094%=      5-min Rain = 0
KEN1 191057Z 34005KT 13/13 A2996 RMK A01 T01340125  RH  094%=      5-min Rain = 0
KEN1 191058Z 34005KT 13/13 A2996 RMK A01 T01340125  RH  094%=      5-min Rain = 0
KEN1 191059Z 34005KT 13/13 A2996 RMK A01 T01340125  RH  094%=      5-min Rain = 0
KEN1 191100Z 34004KT 13/13 A2996 RMK A01 T01340125  RH  094%=      5-min Rain = 0
KEN1 191101Z 35004KT 13/13 A2996 RMK A01 T01340125  RH  094%=      5-min Rain = 0
KEN1 191102Z 34004KT 13/13 A2996 RMK A01 T01330125  RH  094%=      5-min Rain = 0
KEN1 191103Z 34004KT 13/13 A2996 RMK A01 T01330125  RH  095%=      5-min Rain = 0
KEN1 191104Z 34004KT 13/12 A2996 RMK A01 T01330124  RH  094%=      5-min Rain = 0
KEN1 191105Z 34003KT 13/12 A2996 RMK A01 T01320124  RH  094%=      5-min Rain = 0
KEN1 191106Z 35003KT 13/12 A2996 RMK A01 T01320123  RH  094%=      5-min Rain = 0
KEN1 191107Z 35003KT 13/12 A2996 RMK A01 T01310123  RH  095%=      5-min Rain = 0
KEN1 191108Z 35004KT 13/12 A2996 RMK A01 T01310122  RH  095%=      5-min Rain = 0
KEN1 191109Z 34004KT 13/12 A2996 RMK A01 T01310122  RH  095%=      5-min Rain = 0
KEN1 191110Z 34004KT 13/12 A2996 RMK A01 T01310122  RH  095%=      5-min Rain = 0
KEN1 191111Z 34004KT 13/12 A2996 RMK A01 T01300122  RH  095%=      5-min Rain = 0
KEN1 191112Z 34004KT 13/12 A2996 RMK A01 T01300123  RH  095%=      5-min Rain = 0
KEN1 191113Z 34004KT 13/12 A2996 RMK A01 T01300122  RH  095%=      5-min Rain = 0
KEN1 191114Z 35004KT 13/12 A2996 RMK A01 T01300122  RH  095%=      5-min Rain = 0
KEN1 191115Z 35004KT 13/12 A2996 RMK A01 T01300122  RH  095%=      5-min Rain = 0
KEN1 191116Z 35004KT 13/12 A2996 RMK A01 T01300122  RH  095%=      5-min Rain = 0
KEN1 191117Z 35004KT 13/12 A2996 RMK A01 T01300122  RH  095%=      5-min Rain = 0
KEN1 191118Z 34004KT 13/12 A2996 RMK A01 T01300122  RH  095%=      5-min Rain = 0
KEN1 191119Z 34004KT 13/12 A2996 RMK A01 T01300122  RH  095%=      5-min Rain = 0
KEN1 191120Z 34004KT 13/12 A2996 RMK A01 T01300122  RH  095%=      5-min Rain = 0
KEN1 191121Z 34004KT 13/12 A2996 RMK A01 T01290122  RH  095%=      5-min Rain = 0
KEN1 191122Z 34004KT 13/12 A2996 RMK A01 T01290122  RH  095%=      5-min Rain = 0
KEN1 191123Z 34004KT 13/12 A2996 RMK A01 T01290122  RH  095%=      5-min Rain = 0
KEN1 191124Z 34004KT 13/12 A2996 RMK A01 T01290122  RH  095%=      5-min Rain = 0
KEN1 191125Z 34004KT 13/12 A2996 RMK A01 T01290121  RH  095%=      5-min Rain = 0
KEN1 191126Z 34004KT 13/12 A2996 RMK A01 T01280121  RH  095%=      5-min Rain = 0
KEN1 191127Z 34004KT 13/12 A2996 RMK A01 T01290121  RH  095%=      5-min Rain = 0
KEN1 191128Z 34003KT 13/12 A2996 RMK A01 T01280121  RH  095%=      5-min Rain = 0
KEN1 191129Z 34004KT 13/12 A2996 RMK A01 T01290122  RH  096%=      5-min Rain = 0
KEN1 191130Z 33004KT 13/12 A2996 RMK A01 T01280121  RH  096%=      5-min Rain = 0
KEN1 191131Z 33004KT 13/12 A2996 RMK A01 T01280121  RH  096%=      5-min Rain = 0
KEN1 191132Z 33003KT 13/12 A2996 RMK A01 T01280122  RH  096%=      5-min Rain = 0
KEN1 191133Z 33003KT 13/12 A2996 RMK A01 T01280121  RH  096%=      5-min Rain = 0
KEN1 191134Z 33003KT 13/12 A2996 RMK A01 T01280121  RH  096%=      5-min Rain = 0
KEN1 191135Z 33003KT 13/12 A2996 RMK A01 T01280121  RH  096%=      5-min Rain = 0
KEN1 191136Z 33003KT 13/12 A2996 RMK A01 T01280121  RH  096%=      5-min Rain = 0
KEN1 191137Z 33003KT 13/12 A2996 RMK A01 T01280122  RH  096%=      5-min Rain = 0
KEN1 191138Z 33003KT 13/12 A2996 RMK A01 T01290122  RH  096%=      5-min Rain = 0
KEN1 191139Z 34002KT 13/12 A2996 RMK A01 T01290122  RH  096%=      5-min Rain = 0
KEN1 191140Z 34002KT 13/12 A2996 RMK A01 T01280122  RH  096%=      5-min Rain = 0
KEN1 191141Z 34002KT 13/12 A2996 RMK A01 T01290122  RH  096%=      5-min Rain = 0
KEN1 191142Z 33002KT 13/12 A2996 RMK A01 T01280121  RH  095%=      5-min Rain = 0
KEN1 191143Z 33002KT 13/12 A2996 RMK A01 T01280121  RH  095%=      5-min Rain = 0
KEN1 191144Z 33002KT 13/12 A2996 RMK A01 T01280121  RH  095%=      5-min Rain = 0
KEN1 191145Z 33002KT 13/12 A2996 RMK A01 T01270120  RH  095%=      5-min Rain = 0
KEN1 191146Z 33002KT 13/12 A2996 RMK A01 T01270120  RH  095%=      5-min Rain = 0
KEN1 191147Z 33001KT 13/12 A2996 RMK A01 T01270120  RH  096%=      5-min Rain = 0
KEN1 191148Z 33000KT 13/12 A2996 RMK A01 T01260119  RH  096%=      5-min Rain = 0
KEN1 191149Z 14002KT 12/12 A2996 RMK A01 T01240116  RH  095%=      5-min Rain = 0
KEN1 191150Z 15004KT 12/11 A2996 RMK A01 T01210112  RH  094%=      5-min Rain = 0
KEN1 191151Z 15003KT 12/11 A2996 RMK A01 T01200112  RH  095%=      5-min Rain = 0
KEN1 191152Z 15002KT 12/11 A2997 RMK A01 T01200113  RH  095%=      5-min Rain = 0
KEN1 191153Z 16002KT 12/11 A2997 RMK A01 T01200114  RH  096%=      5-min Rain = 0
KEN1 191154Z 16002KT 12/12 A2997 RMK A01 T01210115  RH  096%=      5-min Rain = 0
KEN1 191155Z 17002KT 12/12 A2997 RMK A01 T01220116  RH  096%=      5-min Rain = 0
KEN1 191156Z 18003KT 12/12 A2997 RMK A01 T01220117  RH  096%=      5-min Rain = 0
KEN1 191157Z 19003KT 12/12 A2997 RMK A01 T01220116  RH  096%=      5-min Rain = 0
KEN1 191158Z 19003KT 12/12 A2997 RMK A01 T01220116  RH  096%=      5-min Rain = 0
KEN1 191159Z 19003KT 12/12 A2997 RMK A01 T01220116  RH  096%=      5-min Rain = 0
KEN1 191200Z 19003KT 12/12 A2997 RMK A01 T01220116  RH  096%=      5-min Rain = 0
KEN1 191201Z 19002KT 12/12 A2997 RMK A01 T01220116  RH  096%=      5-min Rain = 0
KEN1 191202Z 19002KT 12/12 A2997 RMK A01 T01220116  RH  096%=      5-min Rain = 0
KEN1 191203Z 19002KT 12/12 A2997 RMK A01 T01220116  RH  096%=      5-min Rain = 0
KEN1 191204Z 19002KT 12/12 A2997 RMK A01 T01230117  RH  096%=      5-min Rain = 0
KEN1 191205Z 19002KT 12/12 A2997 RMK A01 T01230117  RH  096%=      5-min Rain = 0
KEN1 191206Z 19002KT 12/12 A2997 RMK A01 T01230117  RH  096%=      5-min Rain = 0
KEN1 191207Z 19002KT 12/12 A2997 RMK A01 T01230117  RH  096%=      5-min Rain = 0
KEN1 191208Z 19003KT 12/12 A2997 RMK A01 T01230117  RH  096%=      5-min Rain = 0
KEN1 191209Z 19002KT 12/12 A2997 RMK A01 T01230117  RH  096%=      5-min Rain = 0
KEN1 191210Z 20002KT 12/12 A2997 RMK A01 T01230117  RH  096%=      5-min Rain = 0
KEN1 191211Z 20002KT 12/12 A2997 RMK A01 T01240118  RH  096%=      5-min Rain = 0
KEN1 191212Z 21002KT 12/12 A2997 RMK A01 T01240118  RH  096%=      5-min Rain = 0
KEN1 191213Z 22003KT 13/12 A2997 RMK A01 T01250119  RH  096%=      5-min Rain = 0
KEN1 191214Z 24003KT 13/12 A2997 RMK A01 T01250120  RH  096%=      5-min Rain = 0
KEN1 191215Z 24003KT 13/12 A2997 RMK A01 T01260120  RH  096%=      5-min Rain = 0
KEN1 191216Z 24003KT 13/12 A2997 RMK A01 T01260121  RH  096%=      5-min Rain = 0
KEN1 191217Z 24003KT 13/12 A2997 RMK A01 T01270121  RH  096%=      5-min Rain = 0
KEN1 191218Z 24003KT 13/12 A2997 RMK A01 T01270121  RH  096%=      5-min Rain = 0
KEN1 191219Z 23003KT 13/12 A2997 RMK A01 T01280121  RH  096%=      5-min Rain = 0
KEN1 191220Z 23003KT 13/12 A2997 RMK A01 T01280122  RH  096%=      5-min Rain = 0
KEN1 191221Z 23003KT 13/12 A2997 RMK A01 T01280122  RH  096%=      5-min Rain = 0
KEN1 191222Z 23003KT 13/12 A2997 RMK A01 T01290122  RH  096%=      5-min Rain = 0
KEN1 191223Z 23002KT 13/12 A2997 RMK A01 T01290123  RH  096%=      5-min Rain = 0
KEN1 191224Z 23002KT 13/12 A2997 RMK A01 T01300124  RH  096%=      5-min Rain = 0
KEN1 191225Z 24001KT 13/12 A2997 RMK A01 T01310124  RH  096%=      5-min Rain = 0
KEN1 191226Z 24001KT 13/13 A2997 RMK A01 T01310125  RH  096%=      5-min Rain = 0
KEN1 191227Z 26002KT 13/13 A2997 RMK A01 T01320125  RH  096%=      5-min Rain = 0
KEN1 191228Z 27001KT 13/13 A2998 RMK A01 T01320125  RH  095%=      5-min Rain = 0
KEN1 191229Z 27002KT 13/13 A2998 RMK A01 T01330125  RH  095%=      5-min Rain = 0
KEN1 191230Z 27002KT 13/13 A2998 RMK A01 T01330125  RH  095%=      5-min Rain = 0
KEN1 191231Z 26001KT 13/13 A2998 RMK A01 T01330125  RH  095%=      5-min Rain = 0
KEN1 191232Z 26001KT 13/13 A2998 RMK A01 T01340126  RH  095%=      5-min Rain = 0
KEN1 191233Z 26001KT 13/13 A2998 RMK A01 T01340125  RH  094%=      5-min Rain = 0
KEN1 191234Z 26002KT 14/13 A2998 RMK A01 T01350126  RH  094%=      5-min Rain = 0
KEN1 191235Z 26002KT 14/13 A2998 RMK A01 T01350126  RH  094%=      5-min Rain = 0
KEN1 191236Z 26002KT 14/13 A2998 RMK A01 T01360126  RH  094%=      5-min Rain = 0
KEN1 191237Z 27002KT 14/13 A2998 RMK A01 T01360126  RH  094%=      5-min Rain = 0
KEN1 191238Z 28002KT 14/13 A2998 RMK A01 T01370126  RH  093%=      5-min Rain = 0
KEN1 191239Z 28002KT 14/13 A2998 RMK A01 T01370125  RH  093%=      5-min Rain = 0
KEN1 191240Z 28002KT 14/13 A2998 RMK A01 T01370126  RH  093%=      5-min Rain = 0
KEN1 191241Z 28002KT 14/13 A2998 RMK A01 T01380126  RH  093%=      5-min Rain = 0
KEN1 191242Z 27002KT 14/13 A2998 RMK A01 T01380127  RH  093%=      5-min Rain = 0
KEN1 191243Z 28002KT 14/13 A2998 RMK A01 T01390127  RH  093%=      5-min Rain = 0
KEN1 191244Z 29002KT 14/13 A2998 RMK A01 T01400129  RH  093%=      5-min Rain = 0
KEN1 191245Z 29002KT 14/13 A2998 RMK A01 T01410129  RH  093%=      5-min Rain = 0
KEN1 191246Z 30002KT 14/13 A2998 RMK A01 T01410129  RH  092%=      5-min Rain = 0
KEN1 191247Z 31002KT 14/13 A2998 RMK A01 T01420130  RH  092%=      5-min Rain = 0
KEN1 191248Z 31003KT 14/13 A2998 RMK A01 T01420129  RH  092%=      5-min Rain = 0
KEN1 191249Z 31003KT 14/13 A2998 RMK A01 T01420129  RH  092%=      5-min Rain = 0
KEN1 191250Z 31003KT 14/13 A2998 RMK A01 T01430130  RH  092%=      5-min Rain = 0
KEN1 191251Z 30002KT 14/13 A2998 RMK A01 T01440132  RH  092%=      5-min Rain = 0
KEN1 191252Z 30003KT 15/13 A2998 RMK A01 T01450132  RH  092%=      5-min Rain = 0
KEN1 191253Z 29003KT 15/13 A2998 RMK A01 T01450131  RH  091%=      5-min Rain = 0
KEN1 191254Z 28002KT 15/13 A2998 RMK A01 T01460130  RH  090%=      5-min Rain = 0
KEN1 191255Z 28003KT 15/13 A2998 RMK A01 T01460131  RH  090%=      5-min Rain = 0
KEN1 191256Z 28002KT 15/13 A2998 RMK A01 T01470132  RH  090%=      5-min Rain = 0
KEN1 191257Z 27002KT 15/13 A2998 RMK A01 T01480132  RH  090%=      5-min Rain = 0
KEN1 191258Z 27002KT 15/13 A2998 RMK A01 T01480131  RH  090%=      5-min Rain = 0
KEN1 191259Z 26002KT 15/13 A2998 RMK A01 T01490132  RH  089%=      5-min Rain = 0
KEN1 191300Z 26002KT 15/13 A2998 RMK A01 T01500132  RH  089%=      5-min Rain = 0
KEN1 191301Z 27001KT 15/13 A2998 RMK A01 T01500131  RH  088%=      5-min Rain = 0
KEN1 191302Z 26001KT 15/13 A2998 RMK A01 T01510134  RH  089%=      5-min Rain = 0
KEN1 191303Z 27001KT 15/13 A2998 RMK A01 T01520133  RH  088%=      5-min Rain = 0
KEN1 191304Z 29001KT 15/13 A2998 RMK A01 T01530133  RH  088%=      5-min Rain = 0
KEN1 191305Z 31001KT 15/13 A2998 RMK A01 T01530132  RH  087%=      5-min Rain = 0
KEN1 191306Z 34001KT 15/13 A2998 RMK A01 T01540133  RH  087%=      5-min Rain = 0
KEN1 191307Z 33001KT 16/13 A2999 RMK A01 T01550134  RH  087%=      5-min Rain = 0
KEN1 191308Z 32001KT 16/13 A2999 RMK A01 T01560132  RH  086%=      5-min Rain = 0
KEN1 191309Z 34001KT 16/13 A2999 RMK A01 T01560133  RH  086%=      5-min Rain = 0
KEN1 191310Z 34001KT 16/13 A2999 RMK A01 T01570134  RH  086%=      5-min Rain = 0
KEN1 191311Z 34001KT 16/14 A2999 RMK A01 T01570135  RH  086%=      5-min Rain = 0
KEN1 191312Z 02000KT 16/14 A2999 RMK A01 T01580136  RH  086%=      5-min Rain = 0
KEN1 191313Z 01002KT 16/14 A2999 RMK A01 T01590135  RH  086%=      5-min Rain = 0
KEN1 191314Z 35001KT 16/14 A2999 RMK A01 T01610135  RH  085%=      5-min Rain = 0
KEN1 191315Z 30001KT 16/14 A2999 RMK A01 T01620135  RH  084%=      5-min Rain = 0
KEN1 191316Z 30000KT 16/14 A2999 RMK A01 T01630136  RH  084%=      5-min Rain = 0
KEN1 191317Z 32001KT 16/14 A2999 RMK A01 T01640136  RH  083%=      5-min Rain = 0
KEN1 191318Z 34002KT 17/14 A2999 RMK A01 T01650137  RH  084%=      5-min Rain = 0
KEN1 191319Z 35003KT 17/14 A2999 RMK A01 T01660135  RH  082%=      5-min Rain = 0
KEN1 191320Z 34003KT 17/13 A2999 RMK A01 T01660134  RH  081%=      5-min Rain = 0
KEN1 191321Z 35004KT 17/13 A2999 RMK A01 T01660134  RH  081%=      5-min Rain = 0
KEN1 191322Z 35004KT 17/14 A2999 RMK A01 T01670135  RH  081%=      5-min Rain = 0
KEN1 191323Z 35004KT 17/13 A2999 RMK A01 T01670134  RH  081%=      5-min Rain = 0
KEN1 191324Z 34003KT 17/14 A2999 RMK A01 T01680135  RH  081%=      5-min Rain = 0
KEN1 191325Z 36003KT 17/14 A2999 RMK A01 T01690135  RH  080%=      5-min Rain = 0
KEN1 191326Z 00003KT 17/14 A2999 RMK A01 T01700137  RH  081%=      5-min Rain = 0
KEN1 191327Z 33005KT 17/13 A2999 RMK A01 T01700134  RH  079%=      5-min Rain = 0
KEN1 191328Z 34004KT 17/13 A2999 RMK A01 T01700134  RH  079%=      5-min Rain = 0
KEN1 191329Z 01004KT 17/14 A2999 RMK A01 T01700137  RH  081%=      5-min Rain = 0
KEN1 191330Z 00005KT 17/14 A2999 RMK A01 T01710137  RH  081%=      5-min Rain = 0
KEN1 191331Z 00004KT 17/14 A2999 RMK A01 T01710136  RH  080%=      5-min Rain = 0
KEN1 191332Z 35005KT 17/14 A2999 RMK A01 T01720138  RH  081%=      5-min Rain = 0
KEN1 191333Z 35004KT 17/14 A2999 RMK A01 T01730139  RH  080%=      5-min Rain = 0
KEN1 191334Z 33003KT 17/14 A2999 RMK A01 T01730137  RH  079%=      5-min Rain = 0
KEN1 191335Z 35003KT 17/14 A2999 RMK A01 T01740139  RH  080%=      5-min Rain = 0
KEN1 191336Z 35003KT 17/14 A2999 RMK A01 T01740139  RH  080%=      5-min Rain = 0
KEN1 191337Z 00003KT 18/14 A2999 RMK A01 T01750139  RH  080%=      5-min Rain = 0
KEN1 191338Z 00004KT 18/14 A2999 RMK A01 T01760140  RH  079%=      5-min Rain = 0
KEN1 191339Z 36004KT 18/14 A2999 RMK A01 T01760138  RH  078%=      5-min Rain = 0
KEN1 191340Z 36003KT 18/14 A2999 RMK A01 T01760138  RH  078%=      5-min Rain = 0
KEN1 191341Z 01003KT 18/14 A2999 RMK A01 T01760138  RH  078%=      5-min Rain = 0
KEN1 191342Z 34003KT 18/14 A2999 RMK A01 T01760139  RH  079%=      5-min Rain = 0
KEN1 191343Z 35003KT 18/14 A2999 RMK A01 T01760138  RH  078%=      5-min Rain = 0
KEN1 191344Z 36003KT 18/14 A2999 RMK A01 T01770135  RH  076%=      5-min Rain = 0
KEN1 191345Z 34003KT 18/13 A2999 RMK A01 T01780134  RH  076%=      5-min Rain = 0
KEN1 191346Z 01002KT 18/13 A2999 RMK A01 T01780134  RH  075%=      5-min Rain = 0
KEN1 191347Z 36002KT 18/14 A2999 RMK A01 T01780136  RH  076%=      5-min Rain = 0
KEN1 191348Z 34003KT 18/13 A2999 RMK A01 T01790134  RH  075%=      5-min Rain = 0
KEN1 191349Z 36003KT 18/14 A2999 RMK A01 T01790136  RH  076%=      5-min Rain = 0
KEN1 191350Z 01003KT 18/14 A2999 RMK A01 T01800137  RH  075%=      5-min Rain = 0
KEN1 191351Z 02002KT 18/13 A2999 RMK A01 T01810133  RH  074%=      5-min Rain = 0
KEN1 191352Z 34001KT 18/13 A2999 RMK A01 T01810133  RH  074%=      5-min Rain = 0
KEN1 191353Z 32001KT 18/14 A2999 RMK A01 T01820137  RH  075%=      5-min Rain = 0
KEN1 191354Z 33002KT 18/14 A2999 RMK A01 T01830135  RH  074%=      5-min Rain = 0
KEN1 191355Z 02002KT 18/14 A2999 RMK A01 T01840136  RH  073%=      5-min Rain = 0
KEN1 191356Z 36002KT 18/14 A2999 RMK A01 T01840135  RH  073%=      5-min Rain = 0
KEN1 191357Z 36003KT 19/13 A2999 RMK A01 T01850129  RH  070%=      5-min Rain = 0
KEN1 191358Z 36002KT 19/13 A2999 RMK A01 T01850127  RH  069%=      5-min Rain = 0
KEN1 191359Z 01003KT 19/13 A2999 RMK A01 T01850125  RH  068%=      5-min Rain = 0
KEN1 191400Z 01002KT 19/12 A2999 RMK A01 T01850123  RH  067%=      5-min Rain = 0
KEN1 191401Z 00002KT 19/13 A2999 RMK A01 T01850127  RH  069%=      5-min Rain = 0
KEN1 191402Z 01002KT 19/13 A2999 RMK A01 T01860126  RH  068%=      5-min Rain = 0
KEN1 191403Z 02002KT 19/13 A2999 RMK A01 T01870126  RH  068%=      5-min Rain = 0
KEN1 191404Z 33001KT 19/13 A2999 RMK A01 T01880129  RH  068%=      5-min Rain = 0
KEN1 191405Z 32002KT 19/13 A2999 RMK A01 T01900127  RH  067%=      5-min Rain = 0
KEN1 191406Z 25001KT 19/13 A2999 RMK A01 T01910133  RH  069%=      5-min Rain = 0
KEN1 191407Z 30001KT 19/14 A2999 RMK A01 T01910136  RH  070%=      5-min Rain = 0
KEN1 191408Z 27003KT 19/14 A2999 RMK A01 T01910135  RH  070%=      5-min Rain = 0
KEN1 191409Z 30003KT 19/13 A2999 RMK A01 T01910134  RH  069%=      5-min Rain = 0
KEN1 191410Z 32003KT 19/13 A2999 RMK A01 T01900133  RH  070%=      5-min Rain = 0
KEN1 191411Z 31003KT 19/13 A2999 RMK A01 T01890130  RH  069%=      5-min Rain = 0
KEN1 191412Z 31001KT 19/13 A2999 RMK A01 T01870129  RH  069%=      5-min Rain = 0
KEN1 191413Z 32001KT 19/13 A2999 RMK A01 T01870129  RH  069%=      5-min Rain = 0
KEN1 191414Z 32002KT 19/13 A2999 RMK A01 T01870127  RH  068%=      5-min Rain = 0
KEN1 191415Z 34002KT 19/13 A2999 RMK A01 T01880126  RH  067%=      5-min Rain = 0
KEN1 191416Z 35001KT 19/13 A2999 RMK A01 T01880126  RH  067%=      5-min Rain = 0
KEN1 191417Z 00000KT 19/13 A2999 RMK A01 T01890128  RH  067%=      5-min Rain = 0
KEN1 191418Z 30001KT 19/13 A2999 RMK A01 T01920129  RH  067%=      5-min Rain = 0
KEN1 191419Z 30003KT 19/13 A2999 RMK A01 T01930128  RH  066%=      5-min Rain = 0
KEN1 191420Z 29003KT 19/13 A2999 RMK A01 T01930126  RH  065%=      5-min Rain = 0
KEN1 191421Z 30003KT 19/13 A2999 RMK A01 T01940128  RH  066%=      5-min Rain = 0
KEN1 191422Z 29002KT 19/13 A2999 RMK A01 T01930127  RH  065%=      5-min Rain = 0
KEN1 191423Z 27001KT 19/13 A2999 RMK A01 T01930125  RH  065%=      5-min Rain = 0
KEN1 191424Z 27002KT 19/13 A2999 RMK A01 T01930126  RH  065%=      5-min Rain = 0
KEN1 191425Z 25001KT 19/13 A2999 RMK A01 T01930125  RH  065%=      5-min Rain = 0
KEN1 191426Z 25001KT 19/13 A2999 RMK A01 T01930126  RH  065%=      5-min Rain = 0
KEN1 191427Z 00001KT 19/13 A2999 RMK A01 T01940127  RH  065%=      5-min Rain = 0
KEN1 191428Z 36002KT 20/13 A2999 RMK A01 T01970126  RH  064%=      5-min Rain = 0
KEN1 191429Z 34001KT 20/13 A2999 RMK A01 T01980126  RH  063%=      5-min Rain = 0
KEN1 191430Z 35001KT 20/12 A2999 RMK A01 T01990124  RH  062%=      5-min Rain = 0
KEN1 191431Z 35004KT 20/13 A2999 RMK A01 T02000125  RH  062%=      5-min Rain = 0
KEN1 191432Z 36005KT 20/12 A2999 RMK A01 T02000124  RH  062%=      5-min Rain = 0
KEN1 191433Z 34004KT 20/12 A2999 RMK A01 T02000123  RH  061%=      5-min Rain = 0
KEN1 191434Z 32003KT 20/12 A2999 RMK A01 T01990120  RH  060%=      5-min Rain = 0
KEN1 191435Z 32003KT 20/12 A2999 RMK A01 T01980121  RH  061%=      5-min Rain = 0
KEN1 191436Z 33002KT 20/12 A2999 RMK A01 T01970123  RH  062%=      5-min Rain = 0
KEN1 191437Z 32002KT 20/12 A2999 RMK A01 T01980123  RH  062%=      5-min Rain = 0
KEN1 191438Z 35001KT 20/12 A2999 RMK A01 T01990123  RH  062%=      5-min Rain = 0
KEN1 191439Z 36001KT 20/13 A2999 RMK A01 T02000126  RH  062%=      5-min Rain = 0
KEN1 191440Z 35003KT 20/12 A2999 RMK A01 T02020123  RH  060%=      5-min Rain = 0
KEN1 191441Z 35005KT 20/12 A2999 RMK A01 T02020122  RH  060%=      5-min Rain = 0
KEN1 191442Z 34005KT 20/12 A2999 RMK A01 T02030123  RH  060%=      5-min Rain = 0
KEN1 191443Z 34003KT 20/12 A2999 RMK A01 T02030121  RH  059%=      5-min Rain = 0
KEN1 191444Z 33003KT 20/12 A2999 RMK A01 T02030118  RH  058%=      5-min Rain = 0
KEN1 191445Z 32003KT 20/12 A2999 RMK A01 T02030124  RH  060%=      5-min Rain = 0
KEN1 191446Z 32003KT 20/12 A2998 RMK A01 T02040123  RH  060%=      5-min Rain = 0
KEN1 191447Z 31003KT 20/13 A2998 RMK A01 T02040125  RH  060%=      5-min Rain = 0
KEN1 191448Z 30001KT 20/12 A2998 RMK A01 T02040122  RH  059%=      5-min Rain = 0
KEN1 191449Z 33001KT 20/12 A2998 RMK A01 T02040120  RH  058%=      5-min Rain = 0
KEN1 191450Z 34003KT 21/12 A2998 RMK A01 T02050119  RH  058%=      5-min Rain = 0
KEN1 191451Z 34003KT 21/12 A2998 RMK A01 T02050122  RH  059%=      5-min Rain = 0
KEN1 191452Z 02002KT 21/13 A2998 RMK A01 T02060125  RH  059%=      5-min Rain = 0
KEN1 191453Z 04003KT 21/12 A2998 RMK A01 T02080121  RH  057%=      5-min Rain = 0
KEN1 191454Z 34003KT 21/12 A2998 RMK A01 T02090123  RH  058%=      5-min Rain = 0
KEN1 191455Z 00004KT 21/13 A2998 RMK A01 T02110125  RH  058%=      5-min Rain = 0
KEN1 191456Z 04003KT 21/12 A2998 RMK A01 T02120120  RH  056%=      5-min Rain = 0
KEN1 191457Z 02002KT 21/12 A2998 RMK A01 T02110117  RH  055%=      5-min Rain = 0
KEN1 191458Z 04004KT 21/12 A2998 RMK A01 T02110117  RH  055%=      5-min Rain = 0
KEN1 191459Z 05004KT 21/11 A2998 RMK A01 T02110113  RH  054%=      5-min Rain = 0
KEN1 191500Z 05004KT 21/12 A2998 RMK A01 T02110115  RH  054%=      5-min Rain = 0
KEN1 191501Z 06003KT 21/12 A2998 RMK A01 T02120120  RH  056%=      5-min Rain = 0
KEN1 191502Z 02004KT 21/12 A2998 RMK A01 T02120117  RH  055%=      5-min Rain = 0
KEN1 191503Z 02003KT 21/12 A2998 RMK A01 T02120119  RH  055%=      5-min Rain = 0
KEN1 191504Z 02004KT 21/12 A2998 RMK A01 T02110119  RH  055%=      5-min Rain = 0
KEN1 191505Z 00005KT 21/12 A2998 RMK A01 T02120117  RH  054%=      5-min Rain = 0
KEN1 191506Z 01004KT 21/11 A2998 RMK A01 T02130114  RH  053%=      5-min Rain = 0
KEN1 191507Z 34005KT 21/12 A2998 RMK A01 T02130117  RH  054%=      5-min Rain = 0
KEN1 191508Z 00004KT 21/12 A2998 RMK A01 T02130117  RH  054%=      5-min Rain = 0
KEN1 191509Z 05006KT 21/12 A2998 RMK A01 T02130116  RH  054%=      5-min Rain = 0
KEN1 191510Z 03006KT 21/11 A2998 RMK A01 T02130112  RH  053%=      5-min Rain = 0
KEN1 191511Z 02006KT 21/12 A2998 RMK A01 T02140115  RH  053%=      5-min Rain = 0
KEN1 191512Z 02005KT 22/11 A2998 RMK A01 T02150113  RH  052%=      5-min Rain = 0
KEN1 191513Z 04007KT 22/12 A2998 RMK A01 T02150117  RH  053%=      5-min Rain = 0
KEN1 191514Z 04006KT 21/12 A2998 RMK A01 T02140115  RH  053%=      5-min Rain = 0
KEN1 191515Z 02006KT 21/12 A2998 RMK A01 T02130117  RH  054%=      5-min Rain = 0
KEN1 191516Z 02005KT 21/12 A2998 RMK A01 T02140118  RH  054%=      5-min Rain = 0
KEN1 191517Z 04005KT 21/12 A2998 RMK A01 T02140116  RH  054%=      5-min Rain = 0
KEN1 191518Z 04007KT 21/12 A2998 RMK A01 T02130118  RH  055%=      5-min Rain = 0
KEN1 191519Z 04006KT 22/12 A2998 RMK A01 T02150116  RH  053%=      5-min Rain = 0
KEN1 191520Z 04006KT 22/12 A2998 RMK A01 T02180118  RH  053%=      5-min Rain = 0
KEN1 191521Z 04004KT 22/12 A2998 RMK A01 T02170119  RH  053%=      5-min Rain = 0
KEN1 191522Z 04006KT 22/12 A2998 RMK A01 T02160117  RH  053%=      5-min Rain = 0
KEN1 191523Z 05005KT 22/11 A2998 RMK A01 T02150111  RH  051%=      5-min Rain = 0
KEN1 191524Z 03004KT 22/11 A2998 RMK A01 T02150113  RH  052%=      5-min Rain = 0
KEN1 191525Z 02006KT 22/12 A2998 RMK A01 T02150117  RH  053%=      5-min Rain = 0
KEN1 191526Z 01006KT 22/12 A2999 RMK A01 T02180120  RH  054%=      5-min Rain = 0
KEN1 191527Z 01006KT 22/12 A2999 RMK A01 T02190117  RH  052%=      5-min Rain = 0
KEN1 191528Z 01003KT 22/12 A2999 RMK A01 T02170117  RH  053%=      5-min Rain = 0
KEN1 191529Z 01003KT 22/12 A2999 RMK A01 T02160121  RH  054%=      5-min Rain = 0
KEN1 191530Z 34004KT 22/12 A2998 RMK A01 T02170123  RH  055%=      5-min Rain = 0
KEN1 191531Z 01004KT 22/12 A2998 RMK A01 T02180123  RH  055%=      5-min Rain = 0
KEN1 191532Z 05005KT 22/12 A2998 RMK A01 T02180123  RH  055%=      5-min Rain = 0
KEN1 191533Z 05003KT 22/12 A2998 RMK A01 T02180121  RH  054%=      5-min Rain = 0
KEN1 191534Z 01003KT 22/12 A2998 RMK A01 T02190124  RH  055%=      5-min Rain = 0
KEN1 191535Z 01007KT 22/12 A2998 RMK A01 T02200121  RH  053%=      5-min Rain = 0
KEN1 191536Z 01006KT 22/12 A2998 RMK A01 T02200115  RH  051%=      5-min Rain = 0
KEN1 191537Z 00005KT 22/12 A2998 RMK A01 T02190119  RH  053%=      5-min Rain = 0
KEN1 191538Z 00005KT 22/12 A2998 RMK A01 T02190122  RH  054%=      5-min Rain = 0
KEN1 191539Z 03004KT 22/12 A2998 RMK A01 T02190124  RH  055%=      5-min Rain = 0
KEN1 191540Z 02005KT 22/12 A2998 RMK A01 T02190121  RH  053%=      5-min Rain = 0
KEN1 191541Z 33005KT 22/12 A2998 RMK A01 T02200123  RH  054%=      5-min Rain = 0
KEN1 191542Z 33003KT 22/12 A2998 RMK A01 T02190121  RH  054%=      5-min Rain = 0
KEN1 191543Z 00001KT 22/12 A2998 RMK A01 T02190123  RH  055%=      5-min Rain = 0
KEN1 191544Z 03003KT 22/12 A2998 RMK A01 T02200124  RH  054%=      5-min Rain = 0
KEN1 191545Z 04002KT 22/12 A2998 RMK A01 T02210124  RH  054%=      5-min Rain = 0
KEN1 191546Z 31002KT 22/12 A2998 RMK A01 T02220118  RH  052%=      5-min Rain = 0
KEN1 191547Z 31003KT 22/12 A2998 RMK A01 T02220117  RH  051%=      5-min Rain = 0
KEN1 191548Z 31002KT 22/12 A2998 RMK A01 T02210118  RH  052%=      5-min Rain = 0
KEN1 191549Z 24002KT 22/12 A2998 RMK A01 T02200117  RH  052%=      5-min Rain = 0
KEN1 191550Z 21001KT 22/12 A2998 RMK A01 T02200117  RH  052%=      5-min Rain = 0
KEN1 191551Z 03002KT 22/12 A2998 RMK A01 T02200117  RH  052%=      5-min Rain = 0
KEN1 191552Z 05003KT 22/12 A2998 RMK A01 T02220120  RH  052%=      5-min Rain = 0
KEN1 191553Z 05003KT 22/12 A2998 RMK A01 T02230121  RH  052%=      5-min Rain = 0
KEN1 191554Z 02004KT 22/12 A2998 RMK A01 T02240121  RH  052%=      5-min Rain = 0
KEN1 191555Z 33004KT 23/12 A2998 RMK A01 T02250124  RH  053%=      5-min Rain = 0
KEN1 191556Z 32003KT 23/12 A2998 RMK A01 T02250120  RH  051%=      5-min Rain = 0
KEN1 191557Z 32002KT 23/12 A2998 RMK A01 T02250121  RH  052%=      5-min Rain = 0
KEN1 191558Z 35001KT 22/12 A2998 RMK A01 T02240118  RH  051%=      5-min Rain = 0
KEN1 191559Z 00003KT 23/12 A2998 RMK A01 T02250121  RH  052%=      5-min Rain = 0
KEN1 191600Z 33003KT 23/12 A2998 RMK A01 T02270121  RH  051%=      5-min Rain = 0
KEN1 191601Z 32003KT 23/12 A2998 RMK A01 T02280120  RH  050%=      5-min Rain = 0
KEN1 191602Z 34003KT 23/12 A2998 RMK A01 T02280120  RH  050%=      5-min Rain = 0
KEN1 191603Z 36005KT 23/12 A2998 RMK A01 T02280121  RH  051%=      5-min Rain = 0
KEN1 191604Z 34005KT 23/12 A2998 RMK A01 T02280122  RH  051%=      5-min Rain = 0
KEN1 191605Z 33004KT 23/12 A2998 RMK A01 T02290122  RH  051%=      5-min Rain = 0
KEN1 191606Z 32004KT 23/12 A2998 RMK A01 T02290119  RH  050%=      5-min Rain = 0
KEN1 191607Z 32005KT 23/12 A2998 RMK A01 T02280119  RH  050%=      5-min Rain = 0
KEN1 191608Z 35004KT 23/12 A2998 RMK A01 T02280123  RH  051%=      5-min Rain = 0
KEN1 191609Z 35004KT 23/13 A2998 RMK A01 T02320125  RH  051%=      5-min Rain = 0
KEN1 191610Z 34004KT 23/12 A2998 RMK A01 T02340119  RH  048%=      5-min Rain = 0
KEN1 191611Z 34004KT 23/12 A2998 RMK A01 T02320118  RH  049%=      5-min Rain = 0
KEN1 191612Z 35005KT 23/12 A2998 RMK A01 T02320117  RH  048%=      5-min Rain = 0
KEN1 191613Z 34007KT 23/12 A2998 RMK A01 T02330120  RH  049%=      5-min Rain = 0
KEN1 191614Z 34006KT 23/12 A2998 RMK A01 T02320122  RH  050%=      5-min Rain = 0
KEN1 191615Z 01005KT 23/12 A2998 RMK A01 T02320118  RH  049%=      5-min Rain = 0
KEN1 191616Z 02006KT 23/12 A2998 RMK A01 T02340123  RH  050%=      5-min Rain = 0
KEN1 191617Z 00005KT 24/12 A2998 RMK A01 T02360119  RH  048%=      5-min Rain = 0
KEN1 191618Z 35003KT 23/12 A2998 RMK A01 T02340118  RH  048%=      5-min Rain = 0
KEN1 191619Z 33003KT 23/12 A2998 RMK A01 T02310118  RH  049%=      5-min Rain = 0
KEN1 191620Z 08002KT 23/12 A2998 RMK A01 T02310121  RH  050%=      5-min Rain = 0
KEN1 191621Z 15002KT 23/12 A2998 RMK A01 T02320118  RH  049%=      5-min Rain = 0
KEN1 191622Z 03003KT 23/12 A2998 RMK A01 T02320122  RH  050%=      5-min Rain = 0
KEN1 191623Z 03004KT 23/12 A2998 RMK A01 T02340120  RH  049%=      5-min Rain = 0
KEN1 191624Z 02003KT 23/12 A2998 RMK A01 T02340122  RH  049%=      5-min Rain = 0
KEN1 191625Z 03004KT 23/12 A2998 RMK A01 T02340121  RH  049%=      5-min Rain = 0
KEN1 191626Z 05005KT 23/12 A2998 RMK A01 T02340119  RH  049%=      5-min Rain = 0
KEN1 191627Z 06003KT 23/12 A2998 RMK A01 T02320117  RH  048%=      5-min Rain = 0
KEN1 191628Z 07002KT 23/12 A2998 RMK A01 T02300116  RH  049%=      5-min Rain = 0
KEN1 191629Z 10001KT 23/12 A2998 RMK A01 T02310124  RH  051%=      5-min Rain = 0
KEN1 191630Z 02001KT 24/13 A2998 RMK A01 T02350126  RH  050%=      5-min Rain = 0
KEN1 191631Z 00004KT 24/12 A2998 RMK A01 T02370123  RH  049%=      5-min Rain = 0
KEN1 191632Z 35005KT 24/12 A2998 RMK A01 T02370123  RH  049%=      5-min Rain = 0
KEN1 191633Z 32004KT 24/12 A2998 RMK A01 T02350122  RH  049%=      5-min Rain = 0
KEN1 191634Z 30002KT 23/12 A2998 RMK A01 T02330122  RH  050%=      5-min Rain = 0
KEN1 191635Z 05001KT 23/13 A2998 RMK A01 T02330125  RH  050%=      5-min Rain = 0
KEN1 191636Z 03006KT 24/13 A2997 RMK A01 T02360126  RH  050%=      5-min Rain = 0
KEN1 191637Z 02005KT 24/12 A2997 RMK A01 T02380122  RH  048%=      5-min Rain = 0
KEN1 191638Z 05006KT 24/12 A2997 RMK A01 T02370123  RH  049%=      5-min Rain = 0
KEN1 191639Z 04004KT 24/12 A2997 RMK A01 T02370123  RH  049%=      5-min Rain = 0
KEN1 191640Z 34003KT 24/13 A2997 RMK A01 T02370125  RH  049%=      5-min Rain = 0
KEN1 191641Z 31002KT 24/12 A2997 RMK A01 T02380124  RH  049%=      5-min Rain = 0
KEN1 191642Z 31002KT 24/12 A2997 RMK A01 T02370124  RH  049%=      5-min Rain = 0
KEN1 191643Z 28001KT 24/13 A2997 RMK A01 T02380129  RH  051%=      5-min Rain = 0
KEN1 191644Z 14001KT 24/13 A2997 RMK A01 T02400128  RH  050%=      5-min Rain = 0
KEN1 191645Z 31001KT 24/13 A2997 RMK A01 T02430126  RH  048%=      5-min Rain = 0
KEN1 191646Z 33004KT 25/13 A2997 RMK A01 T02450129  RH  048%=      5-min Rain = 0
KEN1 191647Z 31003KT 24/13 A2997 RMK A01 T02440125  RH  048%=      5-min Rain = 0
KEN1 191648Z 32003KT 24/12 A2997 RMK A01 T02400121  RH  047%=      5-min Rain = 0
KEN1 191649Z 32003KT 24/12 A2997 RMK A01 T02380123  RH  049%=      5-min Rain = 0
KEN1 191650Z 32004KT 24/12 A2997 RMK A01 T02370123  RH  049%=      5-min Rain = 0
KEN1 191651Z 32005KT 24/12 A2997 RMK A01 T02380124  RH  049%=      5-min Rain = 0
KEN1 191652Z 31004KT 24/13 A2997 RMK A01 T02390125  RH  049%=      5-min Rain = 0
KEN1 191653Z 30005KT 24/13 A2997 RMK A01 T02400125  RH  049%=      5-min Rain = 0
KEN1 191654Z 30004KT 24/12 A2997 RMK A01 T02410123  RH  048%=      5-min Rain = 0
KEN1 191655Z 28002KT 24/12 A2997 RMK A01 T02400124  RH  048%=      5-min Rain = 0
KEN1 191656Z 26002KT 24/12 A2997 RMK A01 T02400121  RH  047%=      5-min Rain = 0
KEN1 191657Z 02003KT 24/13 A2997 RMK A01 T02400125  RH  049%=      5-min Rain = 0
KEN1 191658Z 05003KT 24/12 A2997 RMK A01 T02400122  RH  048%=      5-min Rain = 0
KEN1 191659Z 06002KT 24/12 A2998 RMK A01 T02400124  RH  048%=      5-min Rain = 0
KEN1 191700Z 03002KT 24/13 A2997 RMK A01 T02420127  RH  049%=      5-min Rain = 0
KEN1 191701Z 06003KT 24/13 A2997 RMK A01 T02440126  RH  048%=      5-min Rain = 0
KEN1 191702Z 05003KT 25/13 A2997 RMK A01 T02450126  RH  047%=      5-min Rain = 0
KEN1 191703Z 05002KT 25/12 A2997 RMK A01 T02460124  RH  047%=      5-min Rain = 0
KEN1 191704Z 07001KT 25/13 A2997 RMK A01 T02460125  RH  047%=      5-min Rain = 0
KEN1 191705Z 07003KT 25/12 A2997 RMK A01 T02470123  RH  046%=      5-min Rain = 0
KEN1 191706Z 04003KT 25/13 A2997 RMK A01 T02490128  RH  047%=      5-min Rain = 0
KEN1 191707Z 05003KT 25/13 A2997 RMK A01 T02490127  RH  047%=      5-min Rain = 0
KEN1 191708Z 03002KT 25/13 A2997 RMK A01 T02490126  RH  046%=      5-min Rain = 0
KEN1 191709Z 01002KT 25/13 A2997 RMK A01 T02490127  RH  047%=      5-min Rain = 0
KEN1 191710Z 33004KT 25/13 A2997 RMK A01 T02490126  RH  046%=      5-min Rain = 0
KEN1 191711Z 33004KT 25/13 A2997 RMK A01 T02480126  RH  047%=      5-min Rain = 0
KEN1 191712Z 32003KT 25/12 A2997 RMK A01 T02470122  RH  046%=      5-min Rain = 0
KEN1 191713Z 30004KT 25/13 A2997 RMK A01 T02450125  RH  047%=      5-min Rain = 0
KEN1 191714Z 31004KT 25/13 A2997 RMK A01 T02450125  RH  047%=      5-min Rain = 0
KEN1 191715Z 28004KT 25/12 A2997 RMK A01 T02460123  RH  046%=      5-min Rain = 0
KEN1 191716Z 28003KT 25/12 A2997 RMK A01 T02450121  RH  046%=      5-min Rain = 0
KEN1 191717Z 26003KT 24/12 A2997 RMK A01 T02440123  RH  047%=      5-min Rain = 0
KEN1 191718Z 25002KT 24/12 A2997 RMK A01 T02430123  RH  047%=      5-min Rain = 0
KEN1 191719Z 22001KT 24/13 A2997 RMK A01 T02440125  RH  047%=      5-min Rain = 0
KEN1 191720Z 00000KT 25/13 A2997 RMK A01 T02450125  RH  047%=      5-min Rain = 0
KEN1 191721Z 00000KT 25/12 A2997 RMK A01 T02470124  RH  046%=      5-min Rain = 0
KEN1 191722Z 12000KT 25/13 A2997 RMK A01 T02490126  RH  046%=      5-min Rain = 0
KEN1 191723Z 33001KT 25/13 A2997 RMK A01 T02510130  RH  047%=      5-min Rain = 0
KEN1 191724Z 35001KT 25/13 A2997 RMK A01 T02530128  RH  046%=      5-min Rain = 0
KEN1 191725Z 32000KT 25/13 A2997 RMK A01 T02530127  RH  046%=      5-min Rain = 0
KEN1 191726Z 28003KT 25/13 A2997 RMK A01 T02530131  RH  047%=      5-min Rain = 0
KEN1 191727Z 28003KT 25/13 A2997 RMK A01 T02530127  RH  045%=      5-min Rain = 0
KEN1 191728Z 28004KT 25/13 A2997 RMK A01 T02530131  RH  047%=      5-min Rain = 0
KEN1 191729Z 27004KT 25/13 A2997 RMK A01 T02540129  RH  046%=      5-min Rain = 0
KEN1 191730Z 26003KT 25/13 A2997 RMK A01 T02540131  RH  046%=      5-min Rain = 0
KEN1 191731Z 27003KT 25/13 A2997 RMK A01 T02540126  RH  045%=      5-min Rain = 0
KEN1 191732Z 30002KT 25/12 A2997 RMK A01 T02520124  RH  045%=      5-min Rain = 0
KEN1 191733Z 25003KT 25/13 A2997 RMK A01 T02500125  RH  046%=      5-min Rain = 0
KEN1 191734Z 26004KT 25/13 A2997 RMK A01 T02500128  RH  047%=      5-min Rain = 0
KEN1 191735Z 25004KT 25/13 A2997 RMK A01 T02510127  RH  046%=      5-min Rain = 0
KEN1 191736Z 22003KT 25/12 A2997 RMK A01 T02520123  RH  045%=      5-min Rain = 0
KEN1 191737Z 22002KT 25/12 A2997 RMK A01 T02500123  RH  045%=      5-min Rain = 0
KEN1 191738Z 21001KT 25/12 A2997 RMK A01 T02500124  RH  045%=      5-min Rain = 0
KEN1 191739Z 25002KT 25/13 A2997 RMK A01 T02500128  RH  047%=      5-min Rain = 0
KEN1 191740Z 26004KT 25/13 A2997 RMK A01 T02520126  RH  045%=      5-min Rain = 0
KEN1 191741Z 26003KT 25/13 A2997 RMK A01 T02520125  RH  045%=      5-min Rain = 0
KEN1 191742Z 26002KT 25/13 A2997 RMK A01 T02520126  RH  045%=      5-min Rain = 0
KEN1 191743Z 24001KT 25/13 A2997 RMK A01 T02530127  RH  045%=      5-min Rain = 0
KEN1 191744Z 27003KT 25/13 A2997 RMK A01 T02540126  RH  045%=      5-min Rain = 0
KEN1 191745Z 28004KT 25/13 A2997 RMK A01 T02540127  RH  045%=      5-min Rain = 0
KEN1 191746Z 27004KT 26/13 A2997 RMK A01 T02560127  RH  045%=      5-min Rain = 0
KEN1 191747Z 27002KT 26/13 A2997 RMK A01 T02550125  RH  044%=      5-min Rain = 0
KEN1 191748Z 24001KT 26/12 A2997 RMK A01 T02550124  RH  044%=      5-min Rain = 0
KEN1 191749Z 24000KT 26/12 A2997 RMK A01 T02550123  RH  044%=      5-min Rain = 0
KEN1 191750Z 18001KT 26/13 A2997 RMK A01 T02560127  RH  045%=      5-min Rain = 0
KEN1 191751Z 21001KT 26/12 A2997 RMK A01 T02580123  RH  043%=      5-min Rain = 0
KEN1 191752Z 12000KT 26/13 A2997 RMK A01 T02580127  RH  044%=      5-min Rain = 0
KEN1 191753Z 14003KT 26/13 A2997 RMK A01 T02590126  RH  043%=      5-min Rain = 0
KEN1 191754Z 13002KT 26/13 A2996 RMK A01 T02600128  RH  044%=      5-min Rain = 0
KEN1 191755Z 12002KT 26/13 A2996 RMK A01 T02610128  RH  044%=      5-min Rain = 0
KEN1 191756Z 12002KT 26/13 A2997 RMK A01 T02610128  RH  044%=      5-min Rain = 0
KEN1 191757Z 11004KT 26/13 A2997 RMK A01 T02630129  RH  044%=      5-min Rain = 0
KEN1 191758Z 12003KT 26/12 A2997 RMK A01 T02630124  RH  042%=      5-min Rain = 0
KEN1 191759Z 14002KT 26/13 A2997 RMK A01 T02620128  RH  043%=      5-min Rain = 0
KEN1 191800Z 19001KT 26/12 A2997 RMK A01 T02630123  RH  042%=      5-min Rain = 0
KEN1 191801Z 34002KT 26/13 A2997 RMK A01 T02640130  RH  043%=      5-min Rain = 0
KEN1 191802Z 33002KT 27/13 A2997 RMK A01 T02670132  RH  043%=      5-min Rain = 0
KEN1 191803Z 32002KT 27/13 A2997 RMK A01 T02680125  RH  041%=      5-min Rain = 0
KEN1 191804Z 34003KT 27/12 A2997 RMK A01 T02660123  RH  041%=      5-min Rain = 0
KEN1 191805Z 31004KT 26/12 A2997 RMK A01 T02640123  RH  041%=      5-min Rain = 0
KEN1 191806Z 32002KT 26/12 A2997 RMK A01 T02620121  RH  041%=      5-min Rain = 0
KEN1 191807Z 29001KT 26/12 A2997 RMK A01 T02610120  RH  041%=      5-min Rain = 0
KEN1 191808Z 24003KT 26/12 A2997 RMK A01 T02610120  RH  041%=      5-min Rain = 0
KEN1 191809Z 24002KT 26/12 A2997 RMK A01 T02600121  RH  042%=      5-min Rain = 0
KEN1 191810Z 20003KT 26/12 A2997 RMK A01 T02600123  RH  042%=      5-min Rain = 0
KEN1 191811Z 19003KT 26/12 A2996 RMK A01 T02610122  RH  042%=      5-min Rain = 0
KEN1 191812Z 18004KT 26/12 A2996 RMK A01 T02620124  RH  042%=      5-min Rain = 0
KEN1 191813Z 18003KT 26/12 A2996 RMK A01 T02630124  RH  042%=      5-min Rain = 0
KEN1 191814Z 27000KT 26/12 A2996 RMK A01 T02640123  RH  041%=      5-min Rain = 0
KEN1 191815Z 34005KT 26/12 A2996 RMK A01 T02640124  RH  042%=      5-min Rain = 0
KEN1 191816Z 36003KT 26/12 A2996 RMK A01 T02640122  RH  041%=      5-min Rain = 0
KEN1 191817Z 35004KT 26/12 A2996 RMK A01 T02640121  RH  041%=      5-min Rain = 0
KEN1 191818Z 34004KT 26/12 A2996 RMK A01 T02640123  RH  042%=      5-min Rain = 0
KEN1 191819Z 31004KT 27/12 A2996 RMK A01 T02660124  RH  041%=      5-min Rain = 0
KEN1 191820Z 33003KT 27/12 A2996 RMK A01 T02660122  RH  041%=      5-min Rain = 0
KEN1 191821Z 01003KT 27/12 A2996 RMK A01 T02650120  RH  040%=      5-min Rain = 0
KEN1 191822Z 02002KT 27/12 A2996 RMK A01 T02650120  RH  040%=      5-min Rain = 0
KEN1 191823Z 36002KT 27/12 A2996 RMK A01 T02660118  RH  040%=      5-min Rain = 0
KEN1 191824Z 00003KT 27/12 A2996 RMK A01 T02670122  RH  040%=      5-min Rain = 0
KEN1 191825Z 33003KT 27/12 A2996 RMK A01 T02700124  RH  041%=      5-min Rain = 0
KEN1 191826Z 32003KT 27/12 A2996 RMK A01 T02710120  RH  039%=      5-min Rain = 0
KEN1 191827Z 32002KT 27/12 A2996 RMK A01 T02710123  RH  040%=      5-min Rain = 0
KEN1 191828Z 34002KT 27/12 A2996 RMK A01 T02700119  RH  039%=      5-min Rain = 0
KEN1 191829Z 06001KT 27/12 A2996 RMK A01 T02690117  RH  039%=      5-min Rain = 0
KEN1 191830Z 00001KT 27/12 A2996 RMK A01 T02680121  RH  040%=      5-min Rain = 0
KEN1 191831Z 33002KT 27/12 A2996 RMK A01 T02690120  RH  039%=      5-min Rain = 0
KEN1 191832Z 31002KT 27/12 A2996 RMK A01 T02700121  RH  040%=      5-min Rain = 0
KEN1 191833Z 05001KT 27/12 A2996 RMK A01 T02700121  RH  040%=      5-min Rain = 0
KEN1 191834Z 13001KT 27/12 A2996 RMK A01 T02720116  RH  038%=      5-min Rain = 0
KEN1 191835Z 09001KT 27/12 A2996 RMK A01 T02730116  RH  038%=      5-min Rain = 0
KEN1 191836Z 04005KT 27/12 A2996 RMK A01 T02740123  RH  039%=      5-min Rain = 0
KEN1 191837Z 05005KT 28/13 A2996 RMK A01 T02770125  RH  039%=      5-min Rain = 0
KEN1 191838Z 04003KT 28/12 A2996 RMK A01 T02790124  RH  038%=      5-min Rain = 0
KEN1 191839Z 34003KT 28/12 A2996 RMK A01 T02790122  RH  038%=      5-min Rain = 0
KEN1 191840Z 00006KT 28/12 A2996 RMK A01 T02790123  RH  038%=      5-min Rain = 0
KEN1 191841Z 01006KT 28/12 A2996 RMK A01 T02790124  RH  038%=      5-min Rain = 0
KEN1 191842Z 02005KT 28/12 A2996 RMK A01 T02800124  RH  038%=      5-min Rain = 0
KEN1 191843Z 02005KT 28/12 A2996 RMK A01 T02800121  RH  037%=      5-min Rain = 0
KEN1 191844Z 04005KT 28/12 A2996 RMK A01 T02800120  RH  037%=      5-min Rain = 0
KEN1 191845Z 02006KT 28/12 A2996 RMK A01 T02800118  RH  037%=      5-min Rain = 0
KEN1 191846Z 04002KT 28/11 A2996 RMK A01 T02780114  RH  036%=      5-min Rain = 0
KEN1 191847Z 06001KT 28/12 A2996 RMK A01 T02760120  RH  038%=      5-min Rain = 0
KEN1 191848Z 01001KT 28/12 A2995 RMK A01 T02760115  RH  037%=      5-min Rain = 0
KEN1 191849Z 05001KT 28/12 A2995 RMK A01 T02760120  RH  038%=      5-min Rain = 0
KEN1 191850Z 00003KT 28/12 A2995 RMK A01 T02790123  RH  038%=      5-min Rain = 0
KEN1 191851Z 34007KT 28/12 A2996 RMK A01 T02800122  RH  038%=      5-min Rain = 0
KEN1 191852Z 35007KT 28/12 A2996 RMK A01 T02790119  RH  037%=      5-min Rain = 0
KEN1 191853Z 02004KT 28/12 A2996 RMK A01 T02770116  RH  037%=      5-min Rain = 0
KEN1 191854Z 08002KT 28/12 A2996 RMK A01 T02750117  RH  037%=      5-min Rain = 0
KEN1 191855Z 07002KT 27/12 A2996 RMK A01 T02740116  RH  037%=      5-min Rain = 0
KEN1 191856Z 12002KT 28/12 A2995 RMK A01 T02750115  RH  037%=      5-min Rain = 0
KEN1 191857Z 11002KT 28/12 A2995 RMK A01 T02770117  RH  037%=      5-min Rain = 0
KEN1 191858Z 12001KT 28/12 A2995 RMK A01 T02780115  RH  036%=      5-min Rain = 0
KEN1 191859Z 14003KT 28/12 A2995 RMK A01 T02780118  RH  037%=      5-min Rain = 0
KEN1 191900Z 13002KT 28/12 A2995 RMK A01 T02790117  RH  037%=      5-min Rain = 0
KEN1 191901Z 15002KT 28/12 A2995 RMK A01 T02790117  RH  036%=      5-min Rain = 0
KEN1 191902Z 14003KT 28/12 A2995 RMK A01 T02790118  RH  037%=      5-min Rain = 0
KEN1 191903Z 14004KT 28/12 A2995 RMK A01 T02790116  RH  036%=      5-min Rain = 0
KEN1 191904Z 19004KT 28/12 A2995 RMK A01 T02810121  RH  037%=      5-min Rain = 0
KEN1 191905Z 22005KT 28/12 A2995 RMK A01 T02820117  RH  036%=      5-min Rain = 0
KEN1 191906Z 17004KT 28/12 A2995 RMK A01 T02810122  RH  037%=      5-min Rain = 0
KEN1 191907Z 16003KT 28/12 A2995 RMK A01 T02810115  RH  036%=      5-min Rain = 0
KEN1 191908Z 28002KT 28/12 A2995 RMK A01 T02820122  RH  037%=      5-min Rain = 0
KEN1 191909Z 24002KT 28/11 A2995 RMK A01 T02830113  RH  035%=      5-min Rain = 0
KEN1 191910Z 31001KT 28/12 A2995 RMK A01 T02830116  RH  035%=      5-min Rain = 0
KEN1 191911Z 30002KT 28/12 A2995 RMK A01 T02830117  RH  036%=      5-min Rain = 0
KEN1 191912Z 30002KT 28/11 A2995 RMK A01 T02830113  RH  035%=      5-min Rain = 0
KEN1 191913Z 34001KT 28/12 A2995 RMK A01 T02810118  RH  036%=      5-min Rain = 0
KEN1 191914Z 05001KT 28/12 A2995 RMK A01 T02820118  RH  036%=      5-min Rain = 0
KEN1 191915Z 27005KT 29/11 A2995 RMK A01 T02850113  RH  034%=      5-min Rain = 0
KEN1 191916Z 25005KT 29/10 A2995 RMK A01 T02870098  RH  031%=      5-min Rain = 0
KEN1 191917Z 27007KT 29/10 A2995 RMK A01 T02870101  RH  031%=      5-min Rain = 0
KEN1 191918Z 27007KT 29/10 A2995 RMK A01 T02880099  RH  031%=      5-min Rain = 0
KEN1 191919Z 28007KT 29/10 A2995 RMK A01 T02870102  RH  032%=      5-min Rain = 0
KEN1 191920Z 27006KT 29/10 A2995 RMK A01 T02880103  RH  032%=      5-min Rain = 0
KEN1 191921Z 26007KT 29/10 A2995 RMK A01 T02880103  RH  032%=      5-min Rain = 0
KEN1 191922Z 29005KT 29/11 A2995 RMK A01 T02900109  RH  033%=      5-min Rain = 0
KEN1 191923Z 28009KT 29/10 A2995 RMK A01 T02920103  RH  031%=      5-min Rain = 0
KEN1 191924Z 28010KT 29/10 A2995 RMK A01 T02910099  RH  030%=      5-min Rain = 0
KEN1 191925Z 30007KT 29/10 A2995 RMK A01 T02890099  RH  031%=      5-min Rain = 0
KEN1 191926Z 31005KT 29/10 A2995 RMK A01 T02870100  RH  031%=      5-min Rain = 0
KEN1 191927Z 27004KT 29/09 A2995 RMK A01 T02860093  RH  030%=      5-min Rain = 0
KEN1 191928Z 22002KT 28/10 A2995 RMK A01 T02840097  RH  031%=      5-min Rain = 0
KEN1 191929Z 34003KT 29/10 A2995 RMK A01 T02850103  RH  032%=      5-min Rain = 0
KEN1 191930Z 32004KT 29/10 A2995 RMK A01 T02870100  RH  031%=      5-min Rain = 0
KEN1 191931Z 31004KT 29/10 A2995 RMK A01 T02880098  RH  031%=      5-min Rain = 0
KEN1 191932Z 28003KT 29/09 A2994 RMK A01 T02880094  RH  030%=      5-min Rain = 0
KEN1 191933Z 27005KT 29/10 A2994 RMK A01 T02870100  RH  031%=      5-min Rain = 0
KEN1 191934Z 26005KT 29/10 A2994 RMK A01 T02880096  RH  030%=      5-min Rain = 0
KEN1 191935Z 25003KT 29/09 A2994 RMK A01 T02880093  RH  030%=      5-min Rain = 0
KEN1 191936Z 28002KT 29/10 A2994 RMK A01 T02870095  RH  030%=      5-min Rain = 0
KEN1 191937Z 32003KT 29/11 A2994 RMK A01 T02880105  RH  032%=      5-min Rain = 0
KEN1 191938Z 36004KT 29/10 A2994 RMK A01 T02900098  RH  030%=      5-min Rain = 0
KEN1 191939Z 33005KT 29/10 A2994 RMK A01 T02920103  RH  031%=      5-min Rain = 0
KEN1 191940Z 34002KT 29/10 A2994 RMK A01 T02930095  RH  029%=      5-min Rain = 0
KEN1 191941Z 33006KT 29/10 A2994 RMK A01 T02920103  RH  031%=      5-min Rain = 0
KEN1 191942Z 35004KT 29/09 A2994 RMK A01 T02930093  RH  029%=      5-min Rain = 0
KEN1 191943Z 32005G10KT 29/10 A2994 RMK A01 T02930099  RH  030%=      5-min Rain = 0
KEN1 191944Z 31009KT 30/10 A2994 RMK A01 T02950095  RH  029%=      5-min Rain = 0
KEN1 191945Z 32006KT 30/09 A2994 RMK A01 T02950085  RH  027%=      5-min Rain = 0
KEN1 191946Z 29005G10KT 29/09 A2994 RMK A01 T02920086  RH  028%=      5-min Rain = 0
KEN1 191947Z 30008KT 29/09 A2994 RMK A01 T02910092  RH  029%=      5-min Rain = 0
KEN1 191948Z 31008KT 29/09 A2994 RMK A01 T02940094  RH  029%=      5-min Rain = 0
KEN1 191949Z 33008KT 30/09 A2994 RMK A01 T02960088  RH  027%=      5-min Rain = 0
KEN1 191950Z 32004KT 30/08 A2994 RMK A01 T02960077  RH  025%=      5-min Rain = 0
KEN1 191951Z 29004KT 30/08 A2994 RMK A01 T02950084  RH  027%=      5-min Rain = 0
KEN1 191952Z 32003KT 29/09 A2994 RMK A01 T02940085  RH  027%=      5-min Rain = 0
KEN1 191953Z 29006KT 29/09 A2994 RMK A01 T02940088  RH  028%=      5-min Rain = 0
KEN1 191954Z 29006KT 29/09 A2994 RMK A01 T02930087  RH  028%=      5-min Rain = 0
KEN1 191955Z 28007KT 29/09 A2993 RMK A01 T02940094  RH  029%=      5-min Rain = 0
KEN1 191956Z 32005KT 30/09 A2993 RMK A01 T02950091  RH  028%=      5-min Rain = 0
KEN1 191957Z 33003KT 30/10 A2993 RMK A01 T02950097  RH  029%=      5-min Rain = 0
KEN1 191958Z 31004KT 30/09 A2993 RMK A01 T02950091  RH  028%=      5-min Rain = 0
KEN1 191959Z 32009KT 30/10 A2993 RMK A01 T02960098  RH  029%=      5-min Rain = 0
KEN1 192000Z 33010KT 30/09 A2993 RMK A01 T02980089  RH  027%=      5-min Rain = 0
KEN1 192001Z 32008KT 30/09 A2993 RMK A01 T02980087  RH  027%=      5-min Rain = 0
KEN1 192002Z 31006KT 30/09 A2994 RMK A01 T02970089  RH  027%=      5-min Rain = 0
KEN1 192003Z 30006KT 30/09 A2993 RMK A01 T02980088  RH  027%=      5-min Rain = 0
KEN1 192004Z 32008KT 30/08 A2993 RMK A01 T02970077  RH  025%=      5-min Rain = 0
KEN1 192005Z 32009KT 30/08 A2993 RMK A01 T02970080  RH  026%=      5-min Rain = 0
KEN1 192006Z 33009KT 30/08 A2993 RMK A01 T02970080  RH  026%=      5-min Rain = 0
KEN1 192007Z 34008KT 30/08 A2993 RMK A01 T02990076  RH  025%=      5-min Rain = 0
KEN1 192008Z 35008KT 30/08 A2993 RMK A01 T03000079  RH  025%=      5-min Rain = 0
KEN1 192009Z 33007KT 30/08 A2993 RMK A01 T03000084  RH  026%=      5-min Rain = 0
KEN1 192010Z 31007KT 30/08 A2993 RMK A01 T03020079  RH  025%=      5-min Rain = 0
KEN1 192011Z 33007KT 30/08 A2993 RMK A01 T03010077  RH  025%=      5-min Rain = 0
KEN1 192012Z 32006KT 30/07 A2993 RMK A01 T02990069  RH  024%=      5-min Rain = 0
KEN1 192013Z 31006KT 30/08 A2993 RMK A01 T02970079  RH  026%=      5-min Rain = 0
KEN1 192014Z 32004KT 30/08 A2993 RMK A01 T02950084  RH  027%=      5-min Rain = 0
KEN1 192015Z 31004KT 30/08 A2993 RMK A01 T02950083  RH  027%=      5-min Rain = 0
KEN1 192016Z 29006KT 29/08 A2993 RMK A01 T02940083  RH  027%=      5-min Rain = 0
KEN1 192017Z 32005KT 30/08 A2993 RMK A01 T02950079  RH  026%=      5-min Rain = 0
KEN1 192018Z 29003KT 30/08 A2993 RMK A01 T02950082  RH  026%=      5-min Rain = 0
KEN1 192019Z 18002KT 30/07 A2993 RMK A01 T02950072  RH  025%=      5-min Rain = 0
KEN1 192020Z 20001KT 30/07 A2993 RMK A01 T02950071  RH  024%=      5-min Rain = 0
KEN1 192021Z 22001KT 30/08 A2993 RMK A01 T02950081  RH  026%=      5-min Rain = 0
KEN1 192022Z 24003KT 30/09 A2993 RMK A01 T02970089  RH  027%=      5-min Rain = 0
KEN1 192023Z 25005KT 30/09 A2993 RMK A01 T03010089  RH  027%=      5-min Rain = 0
KEN1 192024Z 26003KT 30/08 A2993 RMK A01 T03030084  RH  026%=      5-min Rain = 0
KEN1 192025Z 25006KT 30/09 A2992 RMK A01 T03020088  RH  026%=      5-min Rain = 0
KEN1 192026Z 31006KT 30/09 A2992 RMK A01 T03040093  RH  027%=      5-min Rain = 0
KEN1 192027Z 31006KT 30/09 A2992 RMK A01 T03040091  RH  026%=      5-min Rain = 0
KEN1 192028Z 31005KT 30/09 A2992 RMK A01 T03030086  RH  026%=      5-min Rain = 0
KEN1 192029Z 29005KT 30/09 A2992 RMK A01 T03000085  RH  026%=      5-min Rain = 0
KEN1 192030Z 30004KT 30/08 A2992 RMK A01 T02990084  RH  026%=      5-min Rain = 0
KEN1 192031Z 33004KT 30/09 A2992 RMK A01 T02990088  RH  027%=      5-min Rain = 0
KEN1 192032Z 30005KT 30/09 A2992 RMK A01 T02990086  RH  026%=      5-min Rain = 0
KEN1 192033Z 31004KT 30/08 A2992 RMK A01 T02990080  RH  025%=      5-min Rain = 0
KEN1 192034Z 29002KT 30/08 A2992 RMK A01 T02960076  RH  025%=      5-min Rain = 0
KEN1 192035Z 15002KT 29/08 A2992 RMK A01 T02940078  RH  026%=      5-min Rain = 0
KEN1 192036Z 05002KT 29/09 A2992 RMK A01 T02940087  RH  027%=      5-min Rain = 0
KEN1 192037Z 04005KT 30/09 A2992 RMK A01 T02970094  RH  028%=      5-min Rain = 0
KEN1 192038Z 05006KT 30/10 A2992 RMK A01 T02990102  RH  029%=      5-min Rain = 0
KEN1 192039Z 05005KT 30/10 A2992 RMK A01 T03020096  RH  028%=      5-min Rain = 0
KEN1 192040Z 06004KT 30/10 A2992 RMK A01 T03020104  RH  029%=      5-min Rain = 0
KEN1 192041Z 08004KT 31/10 A2992 RMK A01 T03050095  RH  027%=      5-min Rain = 0
KEN1 192042Z 07003KT 30/09 A2992 RMK A01 T03020091  RH  027%=      5-min Rain = 0
KEN1 192043Z 02002KT 30/09 A2992 RMK A01 T03000090  RH  027%=      5-min Rain = 0
KEN1 192044Z 06001KT 30/09 A2992 RMK A01 T02980094  RH  028%=      5-min Rain = 0
KEN1 192045Z 05007KT 30/10 A2992 RMK A01 T03000100  RH  029%=      5-min Rain = 0
KEN1 192046Z 02005KT 30/09 A2992 RMK A01 T03040094  RH  027%=      5-min Rain = 0
KEN1 192047Z 01002KT 30/09 A2992 RMK A01 T03030092  RH  027%=      5-min Rain = 0
KEN1 192048Z 32002KT 30/10 A2992 RMK A01 T03030098  RH  028%=      5-min Rain = 0
KEN1 192049Z 32003KT 30/09 A2992 RMK A01 T03030093  RH  027%=      5-min Rain = 0
KEN1 192050Z 35004G9KT 30/10 A2992 RMK A01 T03030097  RH  028%=      5-min Rain = 0
KEN1 192051Z 00009KT 30/09 A2992 RMK A01 T03040090  RH  027%=      5-min Rain = 0
KEN1 192052Z 35009KT 30/09 A2992 RMK A01 T03040091  RH  027%=      5-min Rain = 0
KEN1 192053Z 36009KT 30/09 A2992 RMK A01 T03040090  RH  026%=      5-min Rain = 0
KEN1 192054Z 35011KT 30/09 A2991 RMK A01 T03040090  RH  026%=      5-min Rain = 0
KEN1 192055Z 36009KT 30/09 A2991 RMK A01 T03020088  RH  026%=      5-min Rain = 0
KEN1 192056Z 34008KT 30/09 A2992 RMK A01 T03020086  RH  026%=      5-min Rain = 0
KEN1 192057Z 33006KT 30/08 A2992 RMK A01 T03000083  RH  026%=      5-min Rain = 0
KEN1 192058Z 00007KT 30/08 A2991 RMK A01 T02980084  RH  026%=      5-min Rain = 0
KEN1 192059Z 02004KT 30/08 A2991 RMK A01 T02980082  RH  026%=      5-min Rain = 0
KEN1 192100Z 36007KT 30/09 A2991 RMK A01 T03000092  RH  027%=      5-min Rain = 0
KEN1 192101Z 01006KT 30/09 A2991 RMK A01 T03020087  RH  026%=      5-min Rain = 0
KEN1 192102Z 36006KT 30/09 A2991 RMK A01 T03030086  RH  026%=      5-min Rain = 0
KEN1 192103Z 36003KT 30/08 A2991 RMK A01 T03020081  RH  025%=      5-min Rain = 0
KEN1 192104Z 02002KT 30/08 A2991 RMK A01 T03000083  RH  026%=      5-min Rain = 0
KEN1 192105Z 28003KT 30/09 A2991 RMK A01 T03010088  RH  026%=      5-min Rain = 0
KEN1 192106Z 27004KT 30/09 A2991 RMK A01 T03030085  RH  026%=      5-min Rain = 0
KEN1 192107Z 29006KT 30/09 A2991 RMK A01 T03030089  RH  026%=      5-min Rain = 0
KEN1 192108Z 02002KT 30/09 A2991 RMK A01 T03040093  RH  027%=      5-min Rain = 0
KEN1 192109Z 04004KT 31/10 A2991 RMK A01 T03070099  RH  028%=      5-min Rain = 0
KEN1 192110Z 01008KT 31/10 A2991 RMK A01 T03100098  RH  027%=      5-min Rain = 0
KEN1 192111Z 00007KT 31/10 A2991 RMK A01 T03100096  RH  026%=      5-min Rain = 0
KEN1 192112Z 01006KT 31/10 A2991 RMK A01 T03110098  RH  027%=      5-min Rain = 0
KEN1 192113Z 35007KT 31/09 A2991 RMK A01 T03110090  RH  025%=      5-min Rain = 0
KEN1 192114Z 35009KT 31/09 A2991 RMK A01 T03080091  RH  026%=      5-min Rain = 0
KEN1 192115Z 00008KT 31/09 A299 RMK A01 T03060092  RH  026%=      5-min Rain = 0
KEN1 192116Z 35006KT 31/09 A299 RMK A01 T03050088  RH  026%=      5-min Rain = 0
KEN1 192117Z 35006KT 30/09 A299 RMK A01 T03030088  RH  026%=      5-min Rain = 0
KEN1 192118Z 02008KT 30/09 A299 RMK A01 T03020087  RH  026%=      5-min Rain = 0
KEN1 192119Z 33004KT 30/08 A299 RMK A01 T03010081  RH  025%=      5-min Rain = 0
KEN1 192120Z 30004KT 30/08 A299 RMK A01 T02990083  RH  026%=      5-min Rain = 0
KEN1 192121Z 36004KT 30/09 A299 RMK A01 T02980085  RH  026%=      5-min Rain = 0
KEN1 192122Z 05007KT 30/09 A299 RMK A01 T02990086  RH  026%=      5-min Rain = 0
KEN1 192123Z 06004KT 30/08 A299 RMK A01 T03000081  RH  025%=      5-min Rain = 0
KEN1 192124Z 05004KT 30/08 A299 RMK A01 T02990082  RH  026%=      5-min Rain = 0
KEN1 192125Z 04003KT 30/09 A299 RMK A01 T02990086  RH  026%=      5-min Rain = 0
KEN1 192126Z 03002KT 30/09 A299 RMK A01 T03000085  RH  026%=      5-min Rain = 0
KEN1 192127Z 05004KT 30/09 A299 RMK A01 T03010086  RH  026%=      5-min Rain = 0
KEN1 192128Z 06004KT 30/09 A299 RMK A01 T03020090  RH  027%=      5-min Rain = 0
KEN1 192129Z 03008KT 30/09 A299 RMK A01 T03030093  RH  027%=      5-min Rain = 0
KEN1 192130Z 02008KT 31/09 A299 RMK A01 T03060090  RH  026%=      5-min Rain = 0
KEN1 192131Z 01005KT 31/09 A299 RMK A01 T03050086  RH  026%=      5-min Rain = 0
KEN1 192132Z 08002KT 30/09 A299 RMK A01 T03030091  RH  027%=      5-min Rain = 0
KEN1 192133Z 07002KT 30/09 A299 RMK A01 T03030090  RH  027%=      5-min Rain = 0
KEN1 192134Z 08004KT 30/09 A299 RMK A01 T03040090  RH  026%=      5-min Rain = 0
KEN1 192135Z 09002KT 30/09 A299 RMK A01 T03040088  RH  026%=      5-min Rain = 0
KEN1 192136Z 08004KT 31/09 A299 RMK A01 T03050089  RH  026%=      5-min Rain = 0
KEN1 192137Z 02008KT 31/10 A2989 RMK A01 T03060098  RH  028%=      5-min Rain = 0
KEN1 192138Z 03010KT 31/09 A2989 RMK A01 T03070093  RH  026%=      5-min Rain = 0
KEN1 192139Z 03009KT 31/10 A2989 RMK A01 T03070096  RH  027%=      5-min Rain = 0
KEN1 192140Z 01009KT 31/10 A2989 RMK A01 T03100098  RH  027%=      5-min Rain = 0
KEN1 192141Z 01010G15KT 31/09 A2989 RMK A01 T03100090  RH  026%=      5-min Rain = 0
KEN1 192142Z 00006G11KT 31/09 A2989 RMK A01 T03060088  RH  026%=      5-min Rain = 0
KEN1 192143Z 03009KT 30/09 A2989 RMK A01 T03040093  RH  027%=      5-min Rain = 0
KEN1 192144Z 01006KT 30/09 A2989 RMK A01 T03040090  RH  026%=      5-min Rain = 0
KEN1 192145Z 02005KT 30/09 A2989 RMK A01 T03040092  RH  027%=      5-min Rain = 0
KEN1 192146Z 02004KT 30/10 A2989 RMK A01 T03040095  RH  027%=      5-min Rain = 0
KEN1 192147Z 03003KT 31/09 A2989 RMK A01 T03060094  RH  027%=      5-min Rain = 0
KEN1 192148Z 05005KT 31/10 A2989 RMK A01 T03080098  RH  027%=      5-min Rain = 0
KEN1 192149Z 06005G10KT 31/10 A2989 RMK A01 T03090096  RH  027%=      5-min Rain = 0
KEN1 192150Z 03009KT 31/10 A2989 RMK A01 T03090097  RH  027%=      5-min Rain = 0
KEN1 192151Z 02010KT 31/09 A2989 RMK A01 T03090094  RH  026%=      5-min Rain = 0
KEN1 192152Z 03007KT 31/09 A2989 RMK A01 T03080094  RH  027%=      5-min Rain = 0
KEN1 192153Z 02007KT 31/09 A2989 RMK A01 T03070094  RH  027%=      5-min Rain = 0
KEN1 192154Z 02006KT 31/09 A2989 RMK A01 T03070088  RH  026%=      5-min Rain = 0
KEN1 192155Z 04009KT 31/10 A2989 RMK A01 T03060095  RH  027%=      5-min Rain = 0
KEN1 192156Z 03008KT 31/10 A2989 RMK A01 T03090104  RH  028%=      5-min Rain = 0
KEN1 192157Z 02005KT 31/10 A2989 RMK A01 T03120097  RH  026%=      5-min Rain = 0
KEN1 192158Z 02008KT 31/10 A2989 RMK A01 T03110098  RH  027%=      5-min Rain = 0
KEN1 192159Z 01004KT 31/10 A2989 RMK A01 T03090096  RH  027%=      5-min Rain = 0
KEN1 192200Z 02009KT 31/10 A2989 RMK A01 T03080100  RH  028%=      5-min Rain = 0
KEN1 192201Z 04009KT 31/10 A2988 RMK A01 T03090100  RH  027%=      5-min Rain = 0
KEN1 192202Z 04009KT 31/10 A2988 RMK A01 T03100104  RH  028%=      5-min Rain = 0
KEN1 192203Z 03010KT 31/10 A2988 RMK A01 T03130102  RH  027%=      5-min Rain = 0
KEN1 192204Z 02010KT 31/10 A2988 RMK A01 T03120096  RH  026%=      5-min Rain = 0
KEN1 192205Z 02010KT 31/10 A2988 RMK A01 T03100095  RH  026%=      5-min Rain = 0
KEN1 192206Z 03009KT 31/10 A2988 RMK A01 T03080096  RH  027%=      5-min Rain = 0
KEN1 192207Z 02008KT 31/10 A2988 RMK A01 T03080101  RH  028%=      5-min Rain = 0
KEN1 192208Z 04006KT 31/10 A2988 RMK A01 T03100098  RH  027%=      5-min Rain = 0
KEN1 192209Z 05004KT 31/10 A2988 RMK A01 T03090095  RH  026%=      5-min Rain = 0
KEN1 192210Z 06004KT 31/09 A2988 RMK A01 T03080093  RH  026%=      5-min Rain = 0
KEN1 192211Z 10004KT 31/09 A2988 RMK A01 T03070093  RH  026%=      5-min Rain = 0
KEN1 192212Z 10004KT 31/09 A2988 RMK A01 T03070094  RH  027%=      5-min Rain = 0
KEN1 192213Z 07003KT 31/10 A2988 RMK A01 T03070102  RH  028%=      5-min Rain = 0
KEN1 192214Z 04004KT 31/10 A2988 RMK A01 T03090098  RH  027%=      5-min Rain = 0
KEN1 192215Z 06004KT 31/10 A2988 RMK A01 T03120100  RH  027%=      5-min Rain = 0
KEN1 192216Z 04002KT 31/09 A2988 RMK A01 T03120093  RH  026%=      5-min Rain = 0
KEN1 192217Z 04006KT 31/10 A2988 RMK A01 T03110095  RH  026%=      5-min Rain = 0
KEN1 192218Z 05006KT 31/10 A2988 RMK A01 T03110097  RH  026%=      5-min Rain = 0
KEN1 192219Z 03006KT 31/09 A2988 RMK A01 T03120094  RH  026%=      5-min Rain = 0
KEN1 192220Z 02004KT 31/09 A2988 RMK A01 T03100087  RH  025%=      5-min Rain = 0
KEN1 192221Z 05003KT 31/09 A2988 RMK A01 T03070088  RH  026%=      5-min Rain = 0
KEN1 192222Z 03003KT 31/09 A2988 RMK A01 T03070090  RH  026%=      5-min Rain = 0
KEN1 192223Z 05004KT 31/09 A2988 RMK A01 T03070094  RH  027%=      5-min Rain = 0
KEN1 192224Z 02005KT 31/10 A2988 RMK A01 T03080100  RH  028%=      5-min Rain = 0
KEN1 192225Z 01007KT 31/10 A2988 RMK A01 T03120102  RH  027%=      5-min Rain = 0
KEN1 192226Z 01006KT 31/10 A2988 RMK A01 T03130097  RH  026%=      5-min Rain = 0
KEN1 192227Z 36007KT 31/09 A2987 RMK A01 T03130091  RH  025%=      5-min Rain = 0
KEN1 192228Z 34006KT 31/10 A2987 RMK A01 T03120096  RH  026%=      5-min Rain = 0
KEN1 192229Z 34009KT 31/10 A2987 RMK A01 T03120099  RH  027%=      5-min Rain = 0
KEN1 192230Z 34009KT 31/10 A2987 RMK A01 T03130097  RH  026%=      5-min Rain = 0
KEN1 192231Z 01009KT 31/09 A2987 RMK A01 T03130092  RH  025%=      5-min Rain = 0
KEN1 192232Z 36008KT 31/09 A2987 RMK A01 T03090085  RH  025%=      5-min Rain = 0
KEN1 192233Z 32008KT 31/09 A2987 RMK A01 T03060087  RH  026%=      5-min Rain = 0
KEN1 192234Z 32005KT 30/09 A2987 RMK A01 T03040091  RH  027%=      5-min Rain = 0
KEN1 192235Z 35005KT 31/09 A2987 RMK A01 T03060093  RH  027%=      5-min Rain = 0
KEN1 192236Z 02007KT 31/09 A2987 RMK A01 T03070093  RH  026%=      5-min Rain = 0
KEN1 192237Z 02006KT 31/09 A2987 RMK A01 T03080092  RH  026%=      5-min Rain = 0
KEN1 192238Z 04006KT 31/09 A2987 RMK A01 T03090094  RH  027%=      5-min Rain = 0
KEN1 192239Z 06006KT 31/09 A2987 RMK A01 T03090094  RH  026%=      5-min Rain = 0
KEN1 192240Z 06006KT 31/09 A2987 RMK A01 T03100093  RH  026%=      5-min Rain = 0
KEN1 192241Z 05004KT 31/09 A2987 RMK A01 T03110094  RH  026%=      5-min Rain = 0
KEN1 192242Z 01006KT 31/09 A2987 RMK A01 T03110092  RH  026%=      5-min Rain = 0
KEN1 192243Z 03005KT 31/09 A2987 RMK A01 T03110087  RH  025%=      5-min Rain = 0
KEN1 192244Z 06006KT 31/09 A2987 RMK A01 T03100094  RH  026%=      5-min Rain = 0
KEN1 192245Z 07006KT 31/09 A2987 RMK A01 T03110093  RH  026%=      5-min Rain = 0
KEN1 192246Z 05006KT 31/10 A2987 RMK A01 T03110095  RH  026%=      5-min Rain = 0
KEN1 192247Z 06006KT 31/09 A2987 RMK A01 T03110092  RH  026%=      5-min Rain = 0
KEN1 192248Z 05005KT 31/10 A2987 RMK A01 T03110095  RH  026%=      5-min Rain = 0
KEN1 192249Z 07008KT 31/09 A2987 RMK A01 T03110094  RH  026%=      5-min Rain = 0
KEN1 192250Z 06006KT 31/09 A2987 RMK A01 T03110092  RH  026%=      5-min Rain = 0
KEN1 192251Z 06007KT 31/10 A2987 RMK A01 T03110097  RH  027%=      5-min Rain = 0
KEN1 192252Z 05007G12KT 31/09 A2987 RMK A01 T03110091  RH  026%=      5-min Rain = 0
KEN1 192253Z 05009KT 31/09 A2987 RMK A01 T03110091  RH  026%=      5-min Rain = 0
KEN1 192254Z 04009KT 31/09 A2987 RMK A01 T03100089  RH  025%=      5-min Rain = 0
KEN1 192255Z 04006KT 31/09 A2986 RMK A01 T03090088  RH  025%=      5-min Rain = 0
KEN1 192256Z 04008KT 31/09 A2986 RMK A01 T03080089  RH  026%=      5-min Rain = 0
KEN1 192257Z 02006KT 31/09 A2986 RMK A01 T03080087  RH  025%=      5-min Rain = 0
KEN1 192258Z 02004KT 31/09 A2986 RMK A01 T03080086  RH  025%=      5-min Rain = 0
KEN1 192259Z 02003KT 31/09 A2986 RMK A01 T03080090  RH  026%=      5-min Rain = 0
KEN1 192300Z 03007KT 31/09 A2986 RMK A01 T03090091  RH  026%=      5-min Rain = 0
KEN1 192301Z 03004KT 31/09 A2986 RMK A01 T03100087  RH  025%=      5-min Rain = 0
KEN1 192302Z 04005KT 31/09 A2986 RMK A01 T03100090  RH  025%=      5-min Rain = 0
KEN1 192303Z 06005KT 31/10 A2986 RMK A01 T03110097  RH  027%=      5-min Rain = 0
KEN1 192304Z 08007KT 31/10 A2986 RMK A01 T03120096  RH  026%=      5-min Rain = 0
KEN1 192305Z 07009KT 31/10 A2986 RMK A01 T03130098  RH  026%=      5-min Rain = 0
KEN1 192306Z 09008KT 31/10 A2986 RMK A01 T03130098  RH  026%=      5-min Rain = 0
KEN1 192307Z 09010KT 31/10 A2986 RMK A01 T03120099  RH  027%=      5-min Rain = 0
KEN1 192308Z 08010KT 31/10 A2986 RMK A01 T03110097  RH  027%=      5-min Rain = 0
KEN1 192309Z 09009KT 31/10 A2986 RMK A01 T03110102  RH  028%=      5-min Rain = 0
KEN1 192310Z 09009KT 31/10 A2986 RMK A01 T03130097  RH  026%=      5-min Rain = 0
KEN1 192311Z 10008KT 31/09 A2986 RMK A01 T03120092  RH  026%=      5-min Rain = 0
KEN1 192312Z 11007KT 31/09 A2986 RMK A01 T03100094  RH  026%=      5-min Rain = 0
KEN1 192313Z 10007KT 31/09 A2986 RMK A01 T03100090  RH  026%=      5-min Rain = 0
KEN1 192314Z 07007KT 31/09 A2986 RMK A01 T03100093  RH  026%=      5-min Rain = 0
KEN1 192315Z 07007KT 31/09 A2986 RMK A01 T03090094  RH  026%=      5-min Rain = 0
KEN1 192316Z 07007KT 31/10 A2986 RMK A01 T03100099  RH  027%=      5-min Rain = 0
KEN1 192317Z 04008KT 31/10 A2986 RMK A01 T03110097  RH  027%=      5-min Rain = 0
KEN1 192318Z 04006KT 31/09 A2986 RMK A01 T03110091  RH  026%=      5-min Rain = 0
KEN1 192319Z 06006KT 31/10 A2986 RMK A01 T03100100  RH  027%=      5-min Rain = 0
KEN1 192320Z 06007KT 31/10 A2986 RMK A01 T03110096  RH  026%=      5-min Rain = 0
KEN1 192321Z 07009KT 31/10 A2985 RMK A01 T03110098  RH  027%=      5-min Rain = 0
KEN1 192322Z 08009KT 31/10 A2986 RMK A01 T03110097  RH  027%=      5-min Rain = 0
KEN1 192323Z 07007KT 31/09 A2986 RMK A01 T03120094  RH  026%=      5-min Rain = 0
KEN1 192324Z 07006KT 31/10 A2986 RMK A01 T03100095  RH  026%=      5-min Rain = 0
KEN1 192325Z 08006KT 31/09 A2986 RMK A01 T03100094  RH  026%=      5-min Rain = 0
KEN1 192326Z 08006KT 31/09 A2986 RMK A01 T03090094  RH  026%=      5-min Rain = 0
KEN1 192327Z 08006KT 31/10 A2986 RMK A01 T03090096  RH  027%=      5-min Rain = 0
KEN1 192328Z 07006KT 31/10 A2986 RMK A01 T03090097  RH  027%=      5-min Rain = 0
KEN1 192329Z 08009KT 31/10 A2985 RMK A01 T03100099  RH  027%=      5-min Rain = 0
KEN1 192330Z 07008KT 31/10 A2985 RMK A01 T03110095  RH  026%=      5-min Rain = 0
KEN1 192331Z 09008KT 31/10 A2985 RMK A01 T03090095  RH  026%=      5-min Rain = 0
KEN1 192332Z 09010KT 31/10 A2985 RMK A01 T03080099  RH  027%=      5-min Rain = 0
KEN1 192333Z 09009KT 31/10 A2985 RMK A01 T03090101  RH  028%=      5-min Rain = 0
KEN1 192334Z 10010KT 31/10 A2985 RMK A01 T03110100  RH  027%=      5-min Rain = 0
KEN1 192335Z 10009KT 31/10 A2985 RMK A01 T03110096  RH  027%=      5-min Rain = 0
KEN1 192336Z 10008KT 31/10 A2985 RMK A01 T03100098  RH  027%=      5-min Rain = 0
KEN1 192337Z 11009KT 31/10 A2985 RMK A01 T03090097  RH  027%=      5-min Rain = 0
KEN1 192338Z 10006KT 31/10 A2985 RMK A01 T03090096  RH  027%=      5-min Rain = 0
KEN1 192339Z 08007KT 31/10 A2985 RMK A01 T03090098  RH  027%=      5-min Rain = 0
KEN1 192340Z 07006KT 31/09 A2985 RMK A01 T03090094  RH  026%=      5-min Rain = 0
KEN1 192341Z 08006KT 31/10 A2985 RMK A01 T03090096  RH  027%=      5-min Rain = 0
KEN1 192342Z 09007KT 31/10 A2985 RMK A01 T03090097  RH  027%=      5-min Rain = 0
KEN1 192343Z 08006KT 31/09 A2985 RMK A01 T03090094  RH  026%=      5-min Rain = 0
KEN1 192344Z 08005KT 31/10 A2985 RMK A01 T03090098  RH  027%=      5-min Rain = 0
KEN1 192345Z 08007KT 31/10 A2985 RMK A01 T03100101  RH  027%=      5-min Rain = 0
KEN1 192346Z 10007KT 31/09 A2985 RMK A01 T03110092  RH  026%=      5-min Rain = 0
KEN1 192347Z 09008KT 31/10 A2985 RMK A01 T03100096  RH  027%=      5-min Rain = 0
KEN1 192348Z 11008KT 31/09 A2985 RMK A01 T03090092  RH  026%=      5-min Rain = 0
KEN1 192349Z 10007KT 31/09 A2985 RMK A01 T03090090  RH  026%=      5-min Rain = 0
KEN1 192350Z 10007KT 31/10 A2985 RMK A01 T03080098  RH  027%=      5-min Rain = 0
KEN1 192351Z 10008KT 31/10 A2985 RMK A01 T03090100  RH  027%=      5-min Rain = 0
KEN1 192352Z 09007KT 31/10 A2985 RMK A01 T03100097  RH  027%=      5-min Rain = 0
KEN1 192353Z 09009KT 31/09 A2985 RMK A01 T03100094  RH  026%=      5-min Rain = 0
KEN1 192354Z 11008KT 31/09 A2984 RMK A01 T03090090  RH  026%=      5-min Rain = 0
KEN1 192355Z 10007KT 31/09 A2984 RMK A01 T03080087  RH  025%=      5-min Rain = 0
KEN1 192356Z 10007KT 31/09 A2985 RMK A01 T03070089  RH  026%=      5-min Rain = 0
KEN1 192357Z 11008KT 31/09 A2984 RMK A01 T03070088  RH  026%=      5-min Rain = 0
KEN1 192358Z 11006KT 31/09 A2984 RMK A01 T03070087  RH  025%=      5-min Rain = 0
KEN1 192359Z 11005KT 31/09 A2984 RMK A01 T03070088  RH  026%=      5-min Rain = 0
KEN1 200000Z 12005KT 31/10 A2984 RMK A01 T03070099  RH  028%=      5-min Rain = 0
KEN1 200001Z 11004KT 31/09 A2984 RMK A01 T03090090  RH  026%=      5-min Rain = 0
KEN1 200002Z 09004KT 31/09 A2984 RMK A01 T03090092  RH  026%=      5-min Rain = 0
KEN1 200003Z 08007KT 31/10 A2984 RMK A01 T03090103  RH  028%=      5-min Rain = 0
KEN1 200004Z 08009KT 31/10 A2984 RMK A01 T03100095  RH  026%=      5-min Rain = 0
KEN1 200005Z 08009KT 31/10 A2984 RMK A01 T03090097  RH  027%=      5-min Rain = 0
KEN1 200006Z 07008KT 31/09 A2984 RMK A01 T03080093  RH  026%=      5-min Rain = 0
KEN1 200007Z 07006KT 31/10 A2984 RMK A01 T03070095  RH  027%=      5-min Rain = 0
KEN1 200008Z 08007KT 31/10 A2984 RMK A01 T03070095  RH  027%=      5-min Rain = 0
KEN1 200009Z 07007KT 31/10 A2984 RMK A01 T03070095  RH  027%=      5-min Rain = 0
KEN1 200010Z 09007KT 31/10 A2984 RMK A01 T03060096  RH  027%=      5-min Rain = 0
KEN1 200011Z 09009KT 31/10 A2984 RMK A01 T03050097  RH  027%=      5-min Rain = 0
KEN1 200012Z 09008KT 31/10 A2984 RMK A01 T03050096  RH  027%=      5-min Rain = 0
KEN1 200013Z 07007KT 31/10 A2984 RMK A01 T03050095  RH  027%=      5-min Rain = 0
KEN1 200014Z 08005KT 31/09 A2984 RMK A01 T03050093  RH  027%=      5-min Rain = 0
KEN1 200015Z 08006KT 31/10 A2984 RMK A01 T03050097  RH  027%=      5-min Rain = 0
KEN1 200016Z 08008KT 31/10 A2984 RMK A01 T03050102  RH  028%=      5-min Rain = 0
KEN1 200017Z 10009KT 31/10 A2984 RMK A01 T03060101  RH  028%=      5-min Rain = 0
KEN1 200018Z 09009KT 31/10 A2984 RMK A01 T03070098  RH  027%=      5-min Rain = 0
KEN1 200019Z 10008KT 31/10 A2984 RMK A01 T03070097  RH  027%=      5-min Rain = 0
KEN1 200020Z 10009KT 31/10 A2984 RMK A01 T03060097  RH  027%=      5-min Rain = 0
KEN1 200021Z 10007KT 31/10 A2984 RMK A01 T03060099  RH  028%=      5-min Rain = 0
KEN1 200022Z 11008KT 31/10 A2984 RMK A01 T03060097  RH  027%=      5-min Rain = 0
KEN1 200023Z 11009KT 31/10 A2984 RMK A01 T03060096  RH  027%=      5-min Rain = 0
KEN1 200024Z 11009KT 31/09 A2984 RMK A01 T03060090  RH  026%=      5-min Rain = 0
KEN1 200025Z 11011KT 31/09 A2984 RMK A01 T03050091  RH  026%=      5-min Rain = 0
KEN1 200026Z 11008KT 31/09 A2984 RMK A01 T03050090  RH  026%=      5-min Rain = 0
KEN1 200027Z 09007KT 31/09 A2984 RMK A01 T03050094  RH  027%=      5-min Rain = 0
KEN1 200028Z 08008KT 31/10 A2984 RMK A01 T03050097  RH  027%=      5-min Rain = 0
KEN1 200029Z 08009KT 31/09 A2984 RMK A01 T03050092  RH  026%=      5-min Rain = 0
KEN1 200030Z 08007KT 31/10 A2984 RMK A01 T03050095  RH  027%=      5-min Rain = 0
KEN1 200031Z 08007KT 30/09 A2983 RMK A01 T03040093  RH  027%=      5-min Rain = 0
KEN1 200032Z 08007KT 30/10 A2983 RMK A01 T03040096  RH  027%=      5-min Rain = 0
KEN1 200033Z 09006KT 30/09 A2984 RMK A01 T03040092  RH  027%=      5-min Rain = 0
KEN1 200034Z 09007KT 30/10 A2984 RMK A01 T03040095  RH  027%=      5-min Rain = 0
KEN1 200035Z 10007KT 30/10 A2984 RMK A01 T03040099  RH  028%=      5-min Rain = 0
KEN1 200036Z 11008KT 30/10 A2984 RMK A01 T03040095  RH  027%=      5-min Rain = 0
KEN1 200037Z 11008KT 30/09 A2984 RMK A01 T03040092  RH  027%=      5-min Rain = 0
KEN1 200038Z 10008KT 30/09 A2984 RMK A01 T03030092  RH  027%=      5-min Rain = 0
KEN1 200039Z 09008KT 30/10 A2984 RMK A01 T03030097  RH  028%=      5-min Rain = 0
KEN1 200040Z 09008KT 30/10 A2984 RMK A01 T03030096  RH  028%=      5-min Rain = 0
KEN1 200041Z 09007KT 30/10 A2984 RMK A01 T03030100  RH  028%=      5-min Rain = 0
KEN1 200042Z 10010KT 30/10 A2984 RMK A01 T03020098  RH  028%=      5-min Rain = 0
KEN1 200043Z 10010KT 30/10 A2984 RMK A01 T03020095  RH  028%=      5-min Rain = 0
KEN1 200044Z 09008KT 30/10 A2984 RMK A01 T03020099  RH  028%=      5-min Rain = 0
KEN1 200045Z 09012KT 30/10 A2984 RMK A01 T03020097  RH  028%=      5-min Rain = 0
KEN1 200046Z 09010KT 30/10 A2984 RMK A01 T03010095  RH  028%=      5-min Rain = 0
KEN1 200047Z 09009KT 30/10 A2984 RMK A01 T03010096  RH  028%=      5-min Rain = 0
KEN1 200048Z 09009KT 30/10 A2984 RMK A01 T03000097  RH  028%=      5-min Rain = 0
KEN1 200049Z 09010KT 30/10 A2984 RMK A01 T03000096  RH  028%=      5-min Rain = 0
KEN1 200050Z 09009KT 30/09 A2984 RMK A01 T03000094  RH  028%=      5-min Rain = 0
KEN1 200051Z 09008KT 30/10 A2984 RMK A01 T02990096  RH  028%=      5-min Rain = 0
KEN1 200052Z 08008KT 30/10 A2984 RMK A01 T02990098  RH  029%=      5-min Rain = 0
KEN1 200053Z 09009KT 30/10 A2984 RMK A01 T02990095  RH  028%=      5-min Rain = 0
KEN1 200054Z 09008KT 30/10 A2984 RMK A01 T02980096  RH  028%=      5-min Rain = 0
KEN1 200055Z 08006KT 30/10 A2984 RMK A01 T02980100  RH  029%=      5-min Rain = 0
KEN1 200056Z 09009KT 30/10 A2984 RMK A01 T02980102  RH  030%=      5-min Rain = 0
KEN1 200057Z 09008KT 30/10 A2984 RMK A01 T02970096  RH  029%=      5-min Rain = 0
KEN1 200058Z 09008KT 30/10 A2984 RMK A01 T02980097  RH  029%=      5-min Rain = 0
KEN1 200059Z 09008KT 30/10 A2984 RMK A01 T02970100  RH  029%=      5-min Rain = 0
KEN1 200100Z 10008KT 30/10 A2983 RMK A01 T02970095  RH  029%=      5-min Rain = 0
KEN1 200101Z 10007KT 30/10 A2983 RMK A01 T02970095  RH  028%=      5-min Rain = 0
KEN1 200102Z 10005KT 30/09 A2983 RMK A01 T02970094  RH  028%=      5-min Rain = 0
KEN1 200103Z 09006KT 30/10 A2983 RMK A01 T02970103  RH  030%=      5-min Rain = 0
KEN1 200104Z 10006KT 30/10 A2983 RMK A01 T02970101  RH  030%=      5-min Rain = 0
KEN1 200105Z 10006KT 30/10 A2983 RMK A01 T02970101  RH  030%=      5-min Rain = 0
KEN1 200106Z 11007KT 30/10 A2983 RMK A01 T02960096  RH  029%=      5-min Rain = 0
KEN1 200107Z 11007KT 30/09 A2983 RMK A01 T02970092  RH  028%=      5-min Rain = 0
KEN1 200108Z 11006KT 30/09 A2983 RMK A01 T02970092  RH  028%=      5-min Rain = 0
KEN1 200109Z 11006KT 30/09 A2983 RMK A01 T02960092  RH  028%=      5-min Rain = 0
KEN1 200110Z 11007KT 30/09 A2983 RMK A01 T02960092  RH  028%=      5-min Rain = 0
KEN1 200111Z 10006KT 30/10 A2983 RMK A01 T02960095  RH  029%=      5-min Rain = 0
KEN1 200112Z 09007KT 30/10 A2983 RMK A01 T02960099  RH  030%=      5-min Rain = 0
KEN1 200113Z 09007KT 30/10 A2983 RMK A01 T02950098  RH  029%=      5-min Rain = 0
KEN1 200114Z 09007KT 29/10 A2983 RMK A01 T02940100  RH  030%=      5-min Rain = 0
KEN1 200115Z 09006KT 29/10 A2983 RMK A01 T02920102  RH  031%=      5-min Rain = 0
KEN1 200116Z 10007KT 29/10 A2983 RMK A01 T02910104  RH  031%=      5-min Rain = 0
KEN1 200117Z 10007KT 29/10 A2983 RMK A01 T02900102  RH  031%=      5-min Rain = 0
KEN1 200118Z 09007KT 29/10 A2983 RMK A01 T02890104  RH  032%=      5-min Rain = 0
KEN1 200119Z 10007KT 29/10 A2983 RMK A01 T02880102  RH  031%=      5-min Rain = 0
KEN1 200120Z 09007KT 29/10 A2983 RMK A01 T02880103  RH  032%=      5-min Rain = 0
KEN1 200121Z 09008KT 29/10 A2983 RMK A01 T02880102  RH  031%=      5-min Rain = 0
KEN1 200122Z 09008KT 29/10 A2983 RMK A01 T02870102  RH  031%=      5-min Rain = 0
KEN1 200123Z 10008KT 29/10 A2983 RMK A01 T02870100  RH  031%=      5-min Rain = 0
KEN1 200124Z 10008KT 29/10 A2983 RMK A01 T02860100  RH  031%=      5-min Rain = 0
KEN1 200125Z 10007KT 29/10 A2983 RMK A01 T02850099  RH  031%=      5-min Rain = 0
KEN1 200126Z 10007KT 29/10 A2983 RMK A01 T02850099  RH  031%=      5-min Rain = 0
KEN1 200127Z 10006KT 28/10 A2983 RMK A01 T02840101  RH  032%=      5-min Rain = 0
KEN1 200128Z 10006KT 28/10 A2983 RMK A01 T02830101  RH  032%=      5-min Rain = 0
KEN1 200129Z 11006KT 28/10 A2984 RMK A01 T02820102  RH  032%=      5-min Rain = 0
KEN1 200130Z 10006KT 28/10 A2984 RMK A01 T02810102  RH  033%=      5-min Rain = 0
KEN1 200131Z 10006KT 28/10 A2984 RMK A01 T02810103  RH  033%=      5-min Rain = 0
KEN1 200132Z 10006KT 28/11 A2984 RMK A01 T02790105  RH  034%=      5-min Rain = 0
KEN1 200133Z 10006KT 28/11 A2984 RMK A01 T02780105  RH  034%=      5-min Rain = 0
KEN1 200134Z 09006KT 28/11 A2984 RMK A01 T02760105  RH  034%=      5-min Rain = 0
KEN1 200135Z 09006KT 28/11 A2984 RMK A01 T02750106  RH  035%=      5-min Rain = 0
KEN1 200136Z 09006KT 27/11 A2984 RMK A01 T02730107  RH  035%=      5-min Rain = 0
KEN1 200137Z 09006KT 27/11 A2984 RMK A01 T02710107  RH  036%=      5-min Rain = 0
KEN1 200138Z 09006KT 27/11 A2984 RMK A01 T02700109  RH  037%=      5-min Rain = 0
KEN1 200139Z 09006KT 27/11 A2984 RMK A01 T02690110  RH  037%=      5-min Rain = 0
KEN1 200140Z 09006KT 27/11 A2984 RMK A01 T02670110  RH  038%=      5-min Rain = 0
KEN1 200141Z 09006KT 27/11 A2984 RMK A01 T02660111  RH  038%=      5-min Rain = 0
KEN1 200142Z 09006KT 26/11 A2984 RMK A01 T02640112  RH  038%=      5-min Rain = 0
KEN1 200143Z 09007KT 26/11 A2984 RMK A01 T02630111  RH  039%=      5-min Rain = 0
KEN1 200144Z 09007KT 26/11 A2984 RMK A01 T02620112  RH  039%=      5-min Rain = 0
KEN1 200145Z 09007KT 26/11 A2984 RMK A01 T02610112  RH  039%=      5-min Rain = 0
KEN1 200146Z 10007KT 26/11 A2984 RMK A01 T02600112  RH  040%=      5-min Rain = 0
KEN1 200147Z 10007KT 26/11 A2984 RMK A01 T02590111  RH  040%=      5-min Rain = 0
KEN1 200148Z 10007KT 26/11 A2984 RMK A01 T02580111  RH  040%=      5-min Rain = 0
KEN1 200149Z 10007KT 26/11 A2984 RMK A01 T02570110  RH  040%=      5-min Rain = 0
KEN1 200150Z 10007KT 26/11 A2984 RMK A01 T02570110  RH  040%=      5-min Rain = 0
KEN1 200151Z 10007KT 26/11 A2984 RMK A01 T02570109  RH  040%=      5-min Rain = 0
KEN1 200152Z 10008KT 26/11 A2984 RMK A01 T02550109  RH  040%=      5-min Rain = 0
KEN1 200153Z 10008KT 25/11 A2984 RMK A01 T02540110  RH  040%=      5-min Rain = 0
KEN1 200154Z 10008KT 25/11 A2984 RMK A01 T02530109  RH  040%=      5-min Rain = 0
KEN1 200155Z 10008KT 25/11 A2984 RMK A01 T02530109  RH  041%=      5-min Rain = 0
KEN1 200156Z 10008KT 25/11 A2984 RMK A01 T02510109  RH  041%=      5-min Rain = 0
KEN1 200157Z 10008KT 25/11 A2984 RMK A01 T02510109  RH  041%=      5-min Rain = 0
KEN1 200158Z 10008KT 25/11 A2984 RMK A01 T02500109  RH  041%=      5-min Rain = 0
KEN1 200159Z 10008KT 25/11 A2984 RMK A01 T02490108  RH  041%=      5-min Rain = 0
KEN1 200200Z 10008KT 25/11 A2984 RMK A01 T02490108  RH  041%=      5-min Rain = 0
KEN1 200201Z 10008KT 25/11 A2984 RMK A01 T02480109  RH  042%=      5-min Rain = 0
KEN1 200202Z 10007KT 25/11 A2984 RMK A01 T02470109  RH  042%=      5-min Rain = 0
KEN1 200203Z 09007KT 25/11 A2984 RMK A01 T02450109  RH  042%=      5-min Rain = 0
KEN1 200204Z 09007KT 24/11 A2984 RMK A01 T02440110  RH  043%=      5-min Rain = 0
KEN1 200205Z 09008KT 24/11 A2984 RMK A01 T02420111  RH  044%=      5-min Rain = 0
KEN1 200206Z 09008KT 24/11 A2984 RMK A01 T02400111  RH  044%=      5-min Rain = 0
KEN1 200207Z 09008KT 24/11 A2984 RMK A01 T02370112  RH  045%=      5-min Rain = 0
KEN1 200208Z 08008KT 24/11 A2984 RMK A01 T02350112  RH  046%=      5-min Rain = 0
KEN1 200209Z 09008KT 23/11 A2984 RMK A01 T02320112  RH  047%=      5-min Rain = 0
KEN1 200210Z 09008KT 23/11 A2984 RMK A01 T02300112  RH  047%=      5-min Rain = 0
KEN1 200211Z 09008KT 23/11 A2984 RMK A01 T02280112  RH  048%=      5-min Rain = 0
KEN1 200212Z 09008KT 23/11 A2984 RMK A01 T02270113  RH  048%=      5-min Rain = 0
KEN1 200213Z 09008KT 23/11 A2985 RMK A01 T02270114  RH  049%=      5-min Rain = 0
KEN1 200214Z 09008KT 23/11 A2985 RMK A01 T02250113  RH  049%=      5-min Rain = 0
KEN1 200215Z 09008KT 22/11 A2985 RMK A01 T02240114  RH  050%=      5-min Rain = 0
KEN1 200216Z 09008KT 22/11 A2985 RMK A01 T02230114  RH  050%=      5-min Rain = 0
KEN1 200217Z 09007KT 22/12 A2985 RMK A01 T02210115  RH  051%=      5-min Rain = 0
KEN1 200218Z 09008KT 22/12 A2985 RMK A01 T02200115  RH  051%=      5-min Rain = 0
KEN1 200219Z 08008KT 22/12 A2985 RMK A01 T02200115  RH  051%=      5-min Rain = 0
KEN1 200220Z 08008KT 22/12 A2985 RMK A01 T02200116  RH  052%=      5-min Rain = 0
KEN1 200221Z 08009KT 22/12 A2985 RMK A01 T02190116  RH  052%=      5-min Rain = 0
KEN1 200222Z 09009KT 22/12 A2985 RMK A01 T02190116  RH  052%=      5-min Rain = 0
KEN1 200223Z 09009KT 22/12 A2985 RMK A01 T02180116  RH  052%=      5-min Rain = 0
KEN1 200224Z 09009KT 22/12 A2985 RMK A01 T02180115  RH  052%=      5-min Rain = 0
KEN1 200225Z 09010KT 22/11 A2985 RMK A01 T02190114  RH  051%=      5-min Rain = 0
KEN1 200226Z 09010KT 22/11 A2985 RMK A01 T02210114  RH  051%=      5-min Rain = 0
KEN1 200227Z 09009KT 22/11 A2985 RMK A01 T02230114  RH  050%=      5-min Rain = 0
KEN1 200228Z 09008KT 23/11 A2985 RMK A01 T02250113  RH  049%=      5-min Rain = 0
KEN1 200229Z 09008KT 23/11 A2985 RMK A01 T02260113  RH  049%=      5-min Rain = 0
KEN1 200230Z 09008KT 23/11 A2985 RMK A01 T02260113  RH  049%=      5-min Rain = 0
KEN1 200231Z 09008KT 23/11 A2984 RMK A01 T02260114  RH  049%=      5-min Rain = 0
KEN1 200232Z 10008KT 23/11 A2984 RMK A01 T02260114  RH  049%=      5-min Rain = 0
KEN1 200233Z 10008KT 23/11 A2984 RMK A01 T02250113  RH  049%=      5-min Rain = 0
KEN1 200234Z 10008KT 23/11 A2984 RMK A01 T02250113  RH  049%=      5-min Rain = 0
KEN1 200235Z 10008KT 23/11 A2984 RMK A01 T02250113  RH  049%=      5-min Rain = 0
KEN1 200236Z 10008KT 22/11 A2984 RMK A01 T02240112  RH  049%=      5-min Rain = 0
KEN1 200237Z 10008KT 22/11 A2984 RMK A01 T02240112  RH  049%=      5-min Rain = 0
KEN1 200238Z 11008KT 22/11 A2985 RMK A01 T02230112  RH  049%=      5-min Rain = 0
KEN1 200239Z 11008KT 22/11 A2985 RMK A01 T02230111  RH  049%=      5-min Rain = 0
KEN1 200240Z 11008KT 22/11 A2985 RMK A01 T02240111  RH  049%=      5-min Rain = 0
KEN1 200241Z 11008KT 22/11 A2985 RMK A01 T02240111  RH  049%=      5-min Rain = 0
KEN1 200242Z 11007KT 23/11 A2985 RMK A01 T02250112  RH  049%=      5-min Rain = 0
KEN1 200243Z 11007KT 23/11 A2985 RMK A01 T02250112  RH  049%=      5-min Rain = 0
KEN1 200244Z 11007KT 23/11 A2985 RMK A01 T02250112  RH  049%=      5-min Rain = 0
KEN1 200245Z 11007KT 22/11 A2985 RMK A01 T02240112  RH  049%=      5-min Rain = 0
KEN1 200246Z 11008KT 22/11 A2985 RMK A01 T02230112  RH  049%=      5-min Rain = 0
KEN1 200247Z 11008KT 22/11 A2985 RMK A01 T02230112  RH  049%=      5-min Rain = 0
KEN1 200248Z 11008KT 22/11 A2985 RMK A01 T02230111  RH  049%=      5-min Rain = 0
KEN1 200249Z 11008KT 22/11 A2985 RMK A01 T02230111  RH  049%=      5-min Rain = 0
KEN1 200250Z 11008KT 22/11 A2985 RMK A01 T02230111  RH  049%=      5-min Rain = 0
KEN1 200251Z 11008KT 22/11 A2985 RMK A01 T02230110  RH  049%=      5-min Rain = 0
KEN1 200252Z 11008KT 22/11 A2985 RMK A01 T02230108  RH  048%=      5-min Rain = 0
KEN1 200253Z 11008KT 22/11 A2985 RMK A01 T02240107  RH  048%=      5-min Rain = 0
KEN1 200254Z 12007KT 23/11 A2985 RMK A01 T02250107  RH  047%=      5-min Rain = 0
KEN1 200255Z 12007KT 23/11 A2985 RMK A01 T02250107  RH  047%=      5-min Rain = 0
KEN1 200256Z 11007KT 23/11 A2985 RMK A01 T02260107  RH  047%=      5-min Rain = 0
KEN1 200257Z 12008KT 23/11 A2985 RMK A01 T02250106  RH  047%=      5-min Rain = 0
KEN1 200258Z 11008KT 23/11 A2985 RMK A01 T02250107  RH  047%=      5-min Rain = 0
KEN1 200259Z 11008KT 22/11 A2985 RMK A01 T02240108  RH  048%=      5-min Rain = 0
KEN1 200300Z 11008KT 22/11 A2985 RMK A01 T02230108  RH  048%=      5-min Rain = 0
KEN1 200301Z 11009KT 22/11 A2985 RMK A01 T02220108  RH  048%=      5-min Rain = 0
KEN1 200302Z 11009KT 22/11 A2985 RMK A01 T02210108  RH  049%=      5-min Rain = 0
KEN1 200303Z 11009KT 22/11 A2985 RMK A01 T02200108  RH  049%=      5-min Rain = 0
KEN1 200304Z 12008KT 22/11 A2985 RMK A01 T02200108  RH  049%=      5-min Rain = 0
KEN1 200305Z 12007KT 22/11 A2985 RMK A01 T02190109  RH  050%=      5-min Rain = 0
KEN1 200306Z 12007KT 22/11 A2985 RMK A01 T02170109  RH  050%=      5-min Rain = 0
KEN1 200307Z 12007KT 22/11 A2985 RMK A01 T02160110  RH  051%=      5-min Rain = 0
KEN1 200308Z 13006KT 21/11 A2985 RMK A01 T02140111  RH  052%=      5-min Rain = 0
KEN1 200309Z 13006KT 21/11 A2985 RMK A01 T02120112  RH  053%=      5-min Rain = 0
KEN1 200310Z 13006KT 21/11 A2985 RMK A01 T02110113  RH  053%=      5-min Rain = 0
KEN1 200311Z 13006KT 21/11 A2985 RMK A01 T02090114  RH  054%=      5-min Rain = 0
KEN1 200312Z 13007KT 21/11 A2985 RMK A01 T02080114  RH  055%=      5-min Rain = 0
KEN1 200313Z 13007KT 21/11 A2985 RMK A01 T02070112  RH  055%=      5-min Rain = 0
KEN1 200314Z 13007KT 21/11 A2985 RMK A01 T02070111  RH  054%=      5-min Rain = 0
KEN1 200315Z 13008KT 21/11 A2985 RMK A01 T02070110  RH  054%=      5-min Rain = 0
KEN1 200316Z 13008KT 21/11 A2985 RMK A01 T02080107  RH  052%=      5-min Rain = 0
KEN1 200317Z 13008KT 21/11 A2985 RMK A01 T02100106  RH  051%=      5-min Rain = 0
KEN1 200318Z 13007KT 21/11 A2985 RMK A01 T02110106  RH  051%=      5-min Rain = 0
KEN1 200319Z 13007KT 21/11 A2985 RMK A01 T02120106  RH  051%=      5-min Rain = 0
KEN1 200320Z 14006KT 21/11 A2985 RMK A01 T02120106  RH  051%=      5-min Rain = 0
KEN1 200321Z 13005KT 21/11 A2985 RMK A01 T02120107  RH  051%=      5-min Rain = 0
KEN1 200322Z 14005KT 21/11 A2985 RMK A01 T02110105  RH  051%=      5-min Rain = 0
KEN1 200323Z 14006KT 21/10 A2985 RMK A01 T02110104  RH  051%=      5-min Rain = 0
KEN1 200324Z 14006KT 21/10 A2985 RMK A01 T02110104  RH  050%=      5-min Rain = 0
KEN1 200325Z 15006KT 21/10 A2985 RMK A01 T02110104  RH  050%=      5-min Rain = 0
KEN1 200326Z 15006KT 21/10 A2985 RMK A01 T02110103  RH  050%=      5-min Rain = 0
KEN1 200327Z 15007KT 21/10 A2985 RMK A01 T02130102  RH  049%=      5-min Rain = 0
KEN1 200328Z 15006KT 21/10 A2985 RMK A01 T02140102  RH  049%=      5-min Rain = 0
KEN1 200329Z 15006KT 22/11 A2985 RMK A01 T02150105  RH  050%=      5-min Rain = 0
KEN1 200330Z 15006KT 21/10 A2985 RMK A01 T02140104  RH  049%=      5-min Rain = 0
KEN1 200331Z 14006KT 21/10 A2985 RMK A01 T02130104  RH  050%=      5-min Rain = 0
KEN1 200332Z 15007KT 21/10 A2985 RMK A01 T02130103  RH  049%=      5-min Rain = 0
KEN1 200333Z 16007KT 21/10 A2985 RMK A01 T02120103  RH  050%=      5-min Rain = 0
KEN1 200334Z 16007KT 21/10 A2986 RMK A01 T02120102  RH  049%=      5-min Rain = 0
KEN1 200335Z 16007KT 21/10 A2986 RMK A01 T02120101  RH  049%=      5-min Rain = 0
KEN1 200336Z 15007KT 21/10 A2986 RMK A01 T02120101  RH  049%=      5-min Rain = 0
KEN1 200337Z 15009KT 21/10 A2986 RMK A01 T02120098  RH  048%=      5-min Rain = 0
KEN1 200338Z 14009KT 21/09 A2986 RMK A01 T02140093  RH  046%=      5-min Rain = 0
KEN1 200339Z 14009KT 22/09 A2986 RMK A01 T02180093  RH  045%=      5-min Rain = 0
KEN1 200340Z 14010KT 22/09 A2986 RMK A01 T02210091  RH  043%=      5-min Rain = 0
KEN1 200341Z 15009KT 23/09 A2986 RMK A01 T02250091  RH  042%=      5-min Rain = 0
KEN1 200342Z 15009KT 23/09 A2986 RMK A01 T02260091  RH  042%=      5-min Rain = 0
KEN1 200343Z 15009KT 23/09 A2986 RMK A01 T02260090  RH  042%=      5-min Rain = 0
KEN1 200344Z 15008KT 23/09 A2986 RMK A01 T02270090  RH  042%=      5-min Rain = 0
KEN1 200345Z 16007KT 23/09 A2986 RMK A01 T02270092  RH  042%=      5-min Rain = 0
KEN1 200346Z 17008KT 23/09 A2986 RMK A01 T02260094  RH  043%=      5-min Rain = 0
KEN1 200347Z 16007KT 22/10 A2986 RMK A01 T02220095  RH  044%=      5-min Rain = 0
KEN1 200348Z 16008KT 22/09 A2986 RMK A01 T02200094  RH  045%=      5-min Rain = 0
KEN1 200349Z 16008KT 22/09 A2986 RMK A01 T02180093  RH  045%=      5-min Rain = 0.01
KEN1 200350Z 16008KT 22/09 A2986 RMK A01 T02180091  RH  044%=      5-min Rain = 0.03
KEN1 200351Z 15007KT 22/09 A2986 RMK A01 T02190091  RH  044%=      5-min Rain = 0
KEN1 200352Z 15007KT 22/09 A2986 RMK A01 T02200089  RH  043%=      5-min Rain = 0
KEN1 200353Z 16007KT 22/09 A2986 RMK A01 T02220089  RH  043%=      5-min Rain = 0
KEN1 200354Z 15007KT 22/09 A2986 RMK A01 T02230089  RH  042%=      5-min Rain = 0
KEN1 200355Z 15008KT 22/09 A2986 RMK A01 T02230089  RH  042%=      5-min Rain = 0
KEN1 200356Z 14010KT 22/09 A2986 RMK A01 T02230088  RH  042%=      5-min Rain = 0
KEN1 200357Z 15012KT 23/08 A2986 RMK A01 T02260082  RH  040%=      5-min Rain = 0
KEN1 200358Z 15012KT 23/08 A2986 RMK A01 T02330080  RH  038%=      5-min Rain = 0
KEN1 200359Z 15011KT 24/08 A2986 RMK A01 T02390080  RH  036%=      5-min Rain = 0
KEN1 200400Z 16009KT 24/08 A2986 RMK A01 T02410082  RH  036%=      5-min Rain = 0
KEN1 200401Z 17009KT 24/09 A2986 RMK A01 T02400085  RH  037%=      5-min Rain = 0
KEN1 200402Z 17009KT 24/09 A2986 RMK A01 T02360087  RH  039%=      5-min Rain = 0
KEN1 200403Z 17008KT 23/09 A2986 RMK A01 T02330088  RH  040%=      5-min Rain = 0
KEN1 200404Z 17007KT 23/09 A2986 RMK A01 T02290088  RH  041%=      5-min Rain = 0
KEN1 200405Z 17007KT 23/09 A2986 RMK A01 T02260089  RH  041%=      5-min Rain = 0
KEN1 200406Z 18007KT 22/09 A2986 RMK A01 T02230090  RH  043%=      5-min Rain = 0
KEN1 200407Z 18006KT 22/09 A2986 RMK A01 T02210090  RH  043%=      5-min Rain = 0
KEN1 200408Z 18005KT 22/09 A2986 RMK A01 T02180091  RH  044%=      5-min Rain = 0
KEN1 200409Z 18004KT 22/09 A2986 RMK A01 T02160091  RH  045%=      5-min Rain = 0
KEN1 200410Z 17004KT 22/09 A2986 RMK A01 T02160092  RH  045%=      5-min Rain = 0
KEN1 200411Z 14006KT 21/09 A2987 RMK A01 T02140091  RH  045%=      5-min Rain = 0
KEN1 200412Z 15008KT 21/09 A2987 RMK A01 T02140087  RH  044%=      5-min Rain = 0
KEN1 200413Z 15009KT 22/08 A2987 RMK A01 T02170083  RH  042%=      5-min Rain = 0
KEN1 200414Z 15008KT 22/08 A2986 RMK A01 T02210083  RH  041%=      5-min Rain = 0
KEN1 200415Z 16009KT 22/08 A2987 RMK A01 T02230084  RH  041%=      5-min Rain = 0
KEN1 200416Z 15009KT 23/08 A2986 RMK A01 T02250084  RH  041%=      5-min Rain = 0
KEN1 200417Z 16009KT 23/08 A2987 RMK A01 T02250084  RH  041%=      5-min Rain = 0
KEN1 200418Z 16009KT 23/08 A2987 RMK A01 T02250084  RH  041%=      5-min Rain = 0
KEN1 200419Z 16008KT 23/09 A2987 RMK A01 T02250086  RH  041%=      5-min Rain = 0
KEN1 200420Z 16008KT 22/09 A2987 RMK A01 T02240087  RH  041%=      5-min Rain = 0
KEN1 200421Z 16008KT 22/09 A2987 RMK A01 T02230087  RH  042%=      5-min Rain = 0
KEN1 200422Z 16008KT 22/09 A2987 RMK A01 T02210087  RH  042%=      5-min Rain = 0
KEN1 200423Z 16008KT 22/09 A2987 RMK A01 T02190087  RH  043%=      5-min Rain = 0
KEN1 200424Z 15009KT 22/09 A2987 RMK A01 T02180088  RH  043%=      5-min Rain = 0
KEN1 200425Z 16008KT 22/09 A2987 RMK A01 T02170087  RH  044%=      5-min Rain = 0
KEN1 200426Z 16008KT 22/09 A2987 RMK A01 T02150087  RH  044%=      5-min Rain = 0
KEN1 200427Z 16009KT 22/09 A2987 RMK A01 T02150087  RH  044%=      5-min Rain = 0
KEN1 200428Z 15009KT 21/09 A2987 RMK A01 T02140087  RH  044%=      5-min Rain = 0
KEN1 200429Z 15009KT 21/09 A2987 RMK A01 T02130087  RH  044%=      5-min Rain = 0
KEN1 200430Z 16009KT 21/09 A2987 RMK A01 T02130087  RH  044%=      5-min Rain = 0
KEN1 200431Z 16009KT 21/09 A2987 RMK A01 T02130086  RH  044%=      5-min Rain = 0
KEN1 200432Z 16009KT 21/09 A2987 RMK A01 T02130086  RH  044%=      5-min Rain = 0
KEN1 200433Z 16010KT 21/09 A2987 RMK A01 T02140086  RH  044%=      5-min Rain = 0
KEN1 200434Z 16009KT 22/09 A2987 RMK A01 T02150086  RH  044%=      5-min Rain = 0
KEN1 200435Z 16009KT 22/09 A2987 RMK A01 T02150087  RH  044%=      5-min Rain = 0
KEN1 200436Z 17010KT 21/09 A2987 RMK A01 T02140087  RH  044%=      5-min Rain = 0
KEN1 200437Z 17010KT 21/09 A2987 RMK A01 T02140087  RH  044%=      5-min Rain = 0
KEN1 200438Z 17010KT 21/09 A2987 RMK A01 T02140087  RH  044%=      5-min Rain = 0
KEN1 200439Z 17010KT 21/09 A2987 RMK A01 T02140087  RH  044%=      5-min Rain = 0
KEN1 200440Z 17010KT 21/09 A2987 RMK A01 T02140086  RH  044%=      5-min Rain = 0
KEN1 200441Z 17009KT 21/09 A2987 RMK A01 T02140086  RH  044%=      5-min Rain = 0
KEN1 200442Z 16010KT 22/09 A2987 RMK A01 T02150087  RH  044%=      5-min Rain = 0
KEN1 200443Z 17010KT 22/09 A2987 RMK A01 T02150087  RH  044%=      5-min Rain = 0
KEN1 200444Z 17009KT 22/09 A2987 RMK A01 T02150087  RH  044%=      5-min Rain = 0
KEN1 200445Z 17009KT 22/09 A2987 RMK A01 T02150088  RH  044%=      5-min Rain = 0
KEN1 200446Z 16009KT 21/09 A2987 RMK A01 T02140088  RH  045%=      5-min Rain = 0
KEN1 200447Z 16009KT 21/09 A2987 RMK A01 T02130088  RH  045%=      5-min Rain = 0
KEN1 200448Z 15009KT 21/09 A2987 RMK A01 T02130088  RH  045%=      5-min Rain = 0
KEN1 200449Z 15009KT 21/09 A2987 RMK A01 T02120088  RH  045%=      5-min Rain = 0
KEN1 200450Z 15009KT 21/09 A2987 RMK A01 T02110088  RH  045%=      5-min Rain = 0
KEN1 200451Z 15010KT 21/09 A2987 RMK A01 T02110088  RH  045%=      5-min Rain = 0
KEN1 200452Z 16010KT 21/09 A2987 RMK A01 T02110087  RH  045%=      5-min Rain = 0
KEN1 200453Z 16010KT 21/09 A2987 RMK A01 T02110086  RH  045%=      5-min Rain = 0
KEN1 200454Z 15009KT 21/09 A2987 RMK A01 T02110086  RH  044%=      5-min Rain = 0
KEN1 200455Z 16009KT 21/09 A2987 RMK A01 T02120086  RH  044%=      5-min Rain = 0
KEN1 200456Z 17008KT 21/09 A2987 RMK A01 T02120086  RH  044%=      5-min Rain = 0
KEN1 200457Z 17008KT 21/09 A2987 RMK A01 T02130086  RH  044%=      5-min Rain = 0
KEN1 200458Z 18008KT 21/09 A2987 RMK A01 T02120086  RH  044%=      5-min Rain = 0
KEN1 200459Z 18007KT 21/09 A2987 RMK A01 T02120088  RH  045%=      5-min Rain = 0

Page generated in 0.0789 seconds.